Observation data for Fritch on 11/07/2019      Previous  Date       Current Mesonet Observations  Soil Data  Daily Summary Page  Observations in Plain Language
KFR1 070600Z 01019G27KT 01/M01 A3033 RMK A01 T00101011  RH  086%=      5-min Rain = 0
KFR1 070601Z 02018G26KT 01/M01 A3033 RMK A01 T00091012  RH  086%=      5-min Rain = 0
KFR1 070602Z 03020G26KT 01/M01 A3033 RMK A01 T00101011  RH  086%=      5-min Rain = 0
KFR1 070603Z 03022G29KT 01/M01 A3033 RMK A01 T00091011  RH  086%=      5-min Rain = 0
KFR1 070604Z 02016G24KT 01/M01 A3033 RMK A01 T00091011  RH  086%=      5-min Rain = 0
KFR1 070605Z 01020G31KT 01/M01 A3034 RMK A01 T00091011  RH  087%=      5-min Rain = 0
KFR1 070606Z 01025G34KT 01/M01 A3034 RMK A01 T00091011  RH  087%=      5-min Rain = 0
KFR1 070607Z 01017G27KT 01/M01 A3034 RMK A01 T00091011  RH  087%=      5-min Rain = 0
KFR1 070608Z 01016G22KT 01/M01 A3034 RMK A01 T00091011  RH  087%=      5-min Rain = 0
KFR1 070609Z 02010G17KT 01/M01 A3034 RMK A01 T00091010  RH  087%=      5-min Rain = 0
KFR1 070610Z 01015G24KT 01/M01 A3034 RMK A01 T00101007  RH  088%=      5-min Rain = 0
KFR1 070611Z 02018G24KT 01/M01 A3034 RMK A01 T00101008  RH  088%=      5-min Rain = 0
KFR1 070612Z 03014G19KT 01/M01 A3034 RMK A01 T00101009  RH  087%=      5-min Rain = 0
KFR1 070613Z 02016G22KT 01/M01 A3034 RMK A01 T00101009  RH  088%=      5-min Rain = 0
KFR1 070614Z 01011G16KT 01/M01 A3034 RMK A01 T00091008  RH  088%=      5-min Rain = 0
KFR1 070615Z 02015G21KT 01/M01 A3034 RMK A01 T00101007  RH  089%=      5-min Rain = 0
KFR1 070616Z 03016G27KT 01/M01 A3034 RMK A01 T00101008  RH  088%=      5-min Rain = 0
KFR1 070617Z 04021KT 01/M01 A3033 RMK A01 T00091010  RH  087%=      5-min Rain = 0
KFR1 070618Z 02015KT 01/M01 A3034 RMK A01 T00081011  RH  087%=      5-min Rain = 0
KFR1 070619Z 01015KT 01/M01 A3034 RMK A01 T00081009  RH  088%=      5-min Rain = 0
KFR1 070620Z 02013KT 01/M01 A3034 RMK A01 T00081008  RH  089%=      5-min Rain = 0
KFR1 070621Z 01014KT 01/M01 A3033 RMK A01 T00081008  RH  089%=      5-min Rain = 0
KFR1 070622Z 01015G22KT 01/M01 A3033 RMK A01 T00081008  RH  089%=      5-min Rain = 0
KFR1 070623Z 02015G24KT 01/M01 A3033 RMK A01 T00081009  RH  088%=      5-min Rain = 0
KFR1 070624Z 02020G29KT 01/M01 A3033 RMK A01 T00071010  RH  089%=      5-min Rain = 0
KFR1 070625Z 02021G26KT 01/M01 A3032 RMK A01 T00071010  RH  089%=      5-min Rain = 0
KFR1 070626Z 02015G21KT 01/M01 A3033 RMK A01 T00061010  RH  089%=      5-min Rain = 0
KFR1 070627Z 03021G29KT 01/M01 A3032 RMK A01 T00061010  RH  089%=      5-min Rain = 0
KFR1 070628Z 02019G25KT 01/M01 A3033 RMK A01 T00061010  RH  089%=      5-min Rain = 0
KFR1 070629Z 02020G27KT 01/M01 A3033 RMK A01 T00051010  RH  089%=      5-min Rain = 0
KFR1 070630Z 01019G28KT 01/M01 A3033 RMK A01 T00051010  RH  090%=      5-min Rain = 0
KFR1 070631Z 01017G24KT 01/M01 A3034 RMK A01 T00051009  RH  090%=      5-min Rain = 0
KFR1 070632Z 00020G25KT 01/M01 A3034 RMK A01 T00061007  RH  091%=      5-min Rain = 0
KFR1 070633Z 01017G23KT 01/M01 A3034 RMK A01 T00061008  RH  090%=      5-min Rain = 0
KFR1 070634Z 01019G26KT 01/M01 A3034 RMK A01 T00071009  RH  090%=      5-min Rain = 0
KFR1 070635Z 02017G24KT 01/M01 A3034 RMK A01 T00061010  RH  089%=      5-min Rain = 0
KFR1 070636Z 02016G22KT 01/M01 A3034 RMK A01 T00061009  RH  090%=      5-min Rain = 0
KFR1 070637Z 02018KT 01/M01 A3034 RMK A01 T00061008  RH  090%=      5-min Rain = 0
KFR1 070638Z 02014KT 01/M01 A3034 RMK A01 T00061009  RH  090%=      5-min Rain = 0
KFR1 070639Z 01016G22KT 01/M01 A3034 RMK A01 T00061008  RH  090%=      5-min Rain = 0
KFR1 070640Z 02016G21KT 01/M01 A3034 RMK A01 T00061008  RH  091%=      5-min Rain = 0
KFR1 070641Z 00015G20KT 01/M01 A3034 RMK A01 T00061007  RH  091%=      5-min Rain = 0
KFR1 070642Z 02011KT 01/M01 A3034 RMK A01 T00071006  RH  091%=      5-min Rain = 0
KFR1 070643Z 03017G23KT 01/M01 A3034 RMK A01 T00071008  RH  090%=      5-min Rain = 0
KFR1 070644Z 01017G23KT 01/M01 A3034 RMK A01 T00061009  RH  090%=      5-min Rain = 0
KFR1 070645Z 01020G27KT 01/M01 A3034 RMK A01 T00061009  RH  090%=      5-min Rain = 0
KFR1 070646Z 02017G22KT 01/M01 A3034 RMK A01 T00051010  RH  089%=      5-min Rain = 0
KFR1 070647Z 03021KT 01/M01 A3034 RMK A01 T00061009  RH  090%=      5-min Rain = 0
KFR1 070648Z 03014G20KT 01/M01 A3035 RMK A01 T00061009  RH  090%=      5-min Rain = 0
KFR1 070649Z 02012G19KT 01/M01 A3035 RMK A01 T00071008  RH  090%=      5-min Rain = 0
KFR1 070650Z 02015G21KT 01/M01 A3035 RMK A01 T00071007  RH  090%=      5-min Rain = 0
KFR1 070651Z 02012KT 01/M01 A3036 RMK A01 T00071008  RH  090%=      5-min Rain = 0
KFR1 070652Z 02016KT 01/M01 A3036 RMK A01 T00071007  RH  090%=      5-min Rain = 0
KFR1 070653Z 01015G22KT 01/M01 A3036 RMK A01 T00081005  RH  091%=      5-min Rain = 0
KFR1 070654Z 03018G27KT 01/M01 A3036 RMK A01 T00081006  RH  091%=      5-min Rain = 0
KFR1 070655Z 02014G19KT 01/M01 A3036 RMK A01 T00071008  RH  089%=      5-min Rain = 0
KFR1 070656Z 01017KT 01/M01 A3036 RMK A01 T00071009  RH  089%=      5-min Rain = 0
KFR1 070657Z 02017KT 01/M01 A3036 RMK A01 T00071007  RH  090%=      5-min Rain = 0
KFR1 070658Z 01021KT 01/M01 A3035 RMK A01 T00071007  RH  090%=      5-min Rain = 0
KFR1 070659Z 01019G30KT 01/M01 A3035 RMK A01 T00061010  RH  089%=      5-min Rain = 0
KFR1 070700Z 02016G23KT 00/M01 A3035 RMK A01 T00041012  RH  089%=      5-min Rain = 0
KFR1 070701Z 01021KT 00/M01 A3034 RMK A01 T00041011  RH  089%=      5-min Rain = 0
KFR1 070702Z 01022G28KT 00/M01 A3034 RMK A01 T00041012  RH  089%=      5-min Rain = 0
KFR1 070703Z 02020G28KT 00/M01 A3035 RMK A01 T00041013  RH  088%=      5-min Rain = 0
KFR1 070704Z 01023G28KT 00/M01 A3035 RMK A01 T00041014  RH  088%=      5-min Rain = 0
KFR1 070705Z 02018G25KT 00/M01 A3035 RMK A01 T00031014  RH  088%=      5-min Rain = 0
KFR1 070706Z 01021G29KT 00/M01 A3035 RMK A01 T00031013  RH  089%=      5-min Rain = 0
KFR1 070707Z 01020G30KT 00/M01 A3035 RMK A01 T00031012  RH  089%=      5-min Rain = 0
KFR1 070708Z 01021G29KT 00/M01 A3036 RMK A01 T00031013  RH  089%=      5-min Rain = 0
KFR1 070709Z 02019G24KT 00/M01 A3036 RMK A01 T00031013  RH  089%=      5-min Rain = 0
KFR1 070710Z 01021G26KT 00/M01 A3036 RMK A01 T00031012  RH  089%=      5-min Rain = 0
KFR1 070711Z 01019G27KT 00/M01 A3036 RMK A01 T00031013  RH  089%=      5-min Rain = 0
KFR1 070712Z 02022G30KT 00/M01 A3036 RMK A01 T00031014  RH  088%=      5-min Rain = 0
KFR1 070713Z 01021G28KT 00/M01 A3037 RMK A01 T00031014  RH  088%=      5-min Rain = 0
KFR1 070714Z 02021KT 00/M01 A3037 RMK A01 T00031014  RH  088%=      5-min Rain = 0
KFR1 070715Z 01021KT 00/M01 A3037 RMK A01 T00031014  RH  088%=      5-min Rain = 0
KFR1 070716Z 00021G31KT 00/M01 A3037 RMK A01 T00031014  RH  089%=      5-min Rain = 0
KFR1 070717Z 02021G27KT 00/M01 A3037 RMK A01 T00021014  RH  089%=      5-min Rain = 0
KFR1 070718Z 02018KT 00/M01 A3037 RMK A01 T00021014  RH  089%=      5-min Rain = 0
KFR1 070719Z 01017KT 00/M02 A3037 RMK A01 T00021015  RH  089%=      5-min Rain = 0
KFR1 070720Z 01017G23KT 00/M01 A3037 RMK A01 T00021014  RH  089%=      5-min Rain = 0
KFR1 070721Z 02021KT 00/M01 A3037 RMK A01 T00021014  RH  089%=      5-min Rain = 0
KFR1 070722Z 02018G28KT 00/M01 A3037 RMK A01 T00021014  RH  089%=      5-min Rain = 0
KFR1 070723Z 02016G21KT 00/M01 A3038 RMK A01 T00021014  RH  089%=      5-min Rain = 0
KFR1 070724Z 01023G28KT 00/M01 A3038 RMK A01 T00021013  RH  089%=      5-min Rain = 0
KFR1 070725Z 02020KT 00/M02 A3038 RMK A01 T00021015  RH  088%=      5-min Rain = 0
KFR1 070726Z 02016G22KT 00/M02 A3038 RMK A01 T00011016  RH  088%=      5-min Rain = 0
KFR1 070727Z 01019G24KT 00/M02 A3039 RMK A01 T00011015  RH  089%=      5-min Rain = 0
KFR1 070728Z 01019KT 00/M02 A3039 RMK A01 T00011015  RH  089%=      5-min Rain = 0
KFR1 070729Z 01016G21KT 00/M01 A3039 RMK A01 T00021013  RH  090%=      5-min Rain = 0
KFR1 070730Z 01020G25KT 00/M01 A3039 RMK A01 T00021013  RH  090%=      5-min Rain = 0
KFR1 070731Z 01020G26KT 00/M01 A304 RMK A01 T00021014  RH  089%=      5-min Rain = 0
KFR1 070732Z 00017G23KT 00/M01 A3039 RMK A01 T00011014  RH  089%=      5-min Rain = 0
KFR1 070733Z 01022G29KT 00/M02 A3039 RMK A01 T00011015  RH  089%=      5-min Rain = 0
KFR1 070734Z 01016G23KT 00/02 A3039 RMK A01 T00000-15  RH  089%=      5-min Rain = 0
KFR1 070735Z 01016G23KT 00/M01 A3039 RMK A01 T00011014  RH  090%=      5-min Rain = 0
KFR1 070736Z 02013G18KT 00/M01 A3039 RMK A01 T00011014  RH  090%=      5-min Rain = 0
KFR1 070737Z 02015G20KT 00/M01 A3039 RMK A01 T00021013  RH  090%=      5-min Rain = 0
KFR1 070738Z 01022G29KT 00/M01 A3039 RMK A01 T00021012  RH  090%=      5-min Rain = 0
KFR1 070739Z 02015G22KT 00/M01 A304 RMK A01 T00021014  RH  089%=      5-min Rain = 0
KFR1 070740Z 02020G27KT 00/M02 A304 RMK A01 T00021015  RH  089%=      5-min Rain = 0
KFR1 070741Z 02020G28KT 00/M02 A304 RMK A01 T00021017  RH  087%=      5-min Rain = 0
KFR1 070742Z 01019G27KT 00/M02 A3039 RMK A01 T00011020  RH  086%=      5-min Rain = 0
KFR1 070743Z 03022G31KT 00/M02 A3039 RMK A01 T00011021  RH  085%=      5-min Rain = 0
KFR1 070744Z 03020G27KT 00/M02 A3039 RMK A01 T00011022  RH  085%=      5-min Rain = 0
KFR1 070745Z 04021G31KT 00/M02 A3039 RMK A01 T00011022  RH  084%=      5-min Rain = 0
KFR1 070746Z 03022G30KT 00/M02 A3039 RMK A01 T00011024  RH  084%=      5-min Rain = 0
KFR1 070747Z 03022G29KT 00/03 A3039 RMK A01 T00000-25  RH  083%=      5-min Rain = 0
KFR1 070748Z 02017G23KT 00/M02 A3039 RMK A01 T00011023  RH  084%=      5-min Rain = 0
KFR1 070749Z 03013G20KT 00/M02 A304 RMK A01 T00011022  RH  085%=      5-min Rain = 0
KFR1 070750Z 03014G19KT 00/M02 A3039 RMK A01 T00011021  RH  085%=      5-min Rain = 0
KFR1 070751Z 04019G26KT 00/M02 A3039 RMK A01 T00011021  RH  085%=      5-min Rain = 0
KFR1 070752Z 03015G23KT 00/M02 A3039 RMK A01 T00011021  RH  085%=      5-min Rain = 0
KFR1 070753Z 03013KT 00/M02 A3039 RMK A01 T00011019  RH  086%=      5-min Rain = 0
KFR1 070754Z 02012G17KT 00/M02 A3039 RMK A01 T00011019  RH  087%=      5-min Rain = 0
KFR1 070755Z 04014KT 00/M02 A3039 RMK A01 T00011018  RH  087%=      5-min Rain = 0
KFR1 070756Z 03015G20KT 00/M02 A3039 RMK A01 T00011019  RH  087%=      5-min Rain = 0
KFR1 070757Z 02013G20KT 00/M02 A3039 RMK A01 T00011017  RH  087%=      5-min Rain = 0
KFR1 070758Z 02018KT 00/M02 A3039 RMK A01 T00011016  RH  088%=      5-min Rain = 0
KFR1 070759Z 02014KT 00/02 A3039 RMK A01 T00-00-16  RH  089%=      5-min Rain = 0
KFR1 070800Z 02013G20KT M00/M02 A3039 RMK A01 T10011016  RH  089%=      5-min Rain = 0
KFR1 070801Z 02015G22KT M00/M02 A3039 RMK A01 T10011016  RH  089%=      5-min Rain = 0
KFR1 070802Z 02014KT M00/M02 A304 RMK A01 T10011017  RH  089%=      5-min Rain = 0
KFR1 070803Z 01019G25KT M00/M02 A304 RMK A01 T10021017  RH  089%=      5-min Rain = 0
KFR1 070804Z 01021G26KT M00/M02 A304 RMK A01 T10021018  RH  089%=      5-min Rain = 0
KFR1 070805Z 01019G28KT M00/M02 A304 RMK A01 T10031018  RH  089%=      5-min Rain = 0
KFR1 070806Z 01018KT M00/M02 A304 RMK A01 T10031018  RH  090%=      5-min Rain = 0
KFR1 070807Z 01020G29KT M00/M02 A304 RMK A01 T10031017  RH  090%=      5-min Rain = 0
KFR1 070808Z 01020G30KT M00/M02 A304 RMK A01 T10031018  RH  090%=      5-min Rain = 0
KFR1 070809Z 02015KT M00/M02 A304 RMK A01 T10031018  RH  090%=      5-min Rain = 0
KFR1 070810Z 04017G23KT M00/M02 A304 RMK A01 T10031017  RH  091%=      5-min Rain = 0
KFR1 070811Z 02012KT M00/M02 A3041 RMK A01 T10031016  RH  091%=      5-min Rain = 0
KFR1 070812Z 03014KT M00/M02 A3041 RMK A01 T10031015  RH  092%=      5-min Rain = 0
KFR1 070813Z 03017G23KT M00/M01 A3041 RMK A01 T10021014  RH  092%=      5-min Rain = 0
KFR1 070814Z 02013G18KT M00/M01 A3042 RMK A01 T10021013  RH  092%=      5-min Rain = 0
KFR1 070815Z 01015G25KT M00/M01 A3042 RMK A01 T10021014  RH  092%=      5-min Rain = 0
KFR1 070816Z 01016G22KT M00/M02 A3042 RMK A01 T10031015  RH  091%=      5-min Rain = 0
KFR1 070817Z 01021G27KT M00/M02 A3042 RMK A01 T10031017  RH  090%=      5-min Rain = 0
KFR1 070818Z 01021KT M00/M02 A3042 RMK A01 T10041018  RH  090%=      5-min Rain = 0
KFR1 070819Z 01017G22KT M00/M02 A3042 RMK A01 T10041018  RH  090%=      5-min Rain = 0
KFR1 070820Z 02021G26KT M00/M02 A3042 RMK A01 T10041016  RH  091%=      5-min Rain = 0
KFR1 070821Z 03020G28KT M00/M02 A3042 RMK A01 T10041018  RH  090%=      5-min Rain = 0
KFR1 070822Z 02021KT M00/M02 A3042 RMK A01 T10041021  RH  088%=      5-min Rain = 0
KFR1 070823Z 01020G26KT M00/M02 A3041 RMK A01 T10041021  RH  088%=      5-min Rain = 0
KFR1 070824Z 02017G24KT M00/M02 A3041 RMK A01 T10041021  RH  088%=      5-min Rain = 0
KFR1 070825Z 02020KT M00/M02 A3041 RMK A01 T10041021  RH  088%=      5-min Rain = 0
KFR1 070826Z 03016G23KT M01/M02 A3041 RMK A01 T10051021  RH  089%=      5-min Rain = 0
KFR1 070827Z 03011KT M01/M02 A3041 RMK A01 T10051019  RH  090%=      5-min Rain = 0
KFR1 070828Z 02016G24KT M01/M02 A3041 RMK A01 T10051019  RH  090%=      5-min Rain = 0
KFR1 070829Z 02019G24KT M01/M02 A304 RMK A01 T10051019  RH  090%=      5-min Rain = 0
KFR1 070830Z 01018G24KT M01/M02 A3041 RMK A01 T10061020  RH  090%=      5-min Rain = 0
KFR1 070831Z 01018G24KT M01/M02 A3041 RMK A01 T10061020  RH  090%=      5-min Rain = 0
KFR1 070832Z 02018G24KT M01/M02 A3041 RMK A01 T10061020  RH  090%=      5-min Rain = 0
KFR1 070833Z 01019KT M01/M02 A3041 RMK A01 T10061021  RH  090%=      5-min Rain = 0
KFR1 070834Z 01020G28KT M01/M02 A3041 RMK A01 T10071021  RH  090%=      5-min Rain = 0
KFR1 070835Z 02021G26KT M01/M02 A3041 RMK A01 T10071022  RH  090%=      5-min Rain = 0
KFR1 070836Z 01021G26KT M01/M02 A3042 RMK A01 T10071021  RH  091%=      5-min Rain = 0
KFR1 070837Z 01019G26KT M01/M02 A3042 RMK A01 T10071021  RH  091%=      5-min Rain = 0
KFR1 070838Z 01014G19KT M01/M02 A3042 RMK A01 T10071020  RH  091%=      5-min Rain = 0
KFR1 070839Z 01019KT M01/M02 A3042 RMK A01 T10071019  RH  092%=      5-min Rain = 0
KFR1 070840Z 02019KT M01/M02 A3042 RMK A01 T10071019  RH  092%=      5-min Rain = 0
KFR1 070841Z 01017G22KT M01/M02 A3042 RMK A01 T10061018  RH  092%=      5-min Rain = 0
KFR1 070842Z 02014KT M01/M02 A3042 RMK A01 T10061017  RH  092%=      5-min Rain = 0
KFR1 070843Z 02019G26KT M01/M02 A3041 RMK A01 T10051016  RH  092%=      5-min Rain = 0
KFR1 070844Z 02017G22KT M01/M02 A3041 RMK A01 T10061018  RH  091%=      5-min Rain = 0
KFR1 070845Z 02015G21KT M01/M02 A3041 RMK A01 T10071020  RH  091%=      5-min Rain = 0
KFR1 070846Z 01020G25KT M01/M02 A3041 RMK A01 T10071020  RH  091%=      5-min Rain = 0
KFR1 070847Z 01018KT M01/M02 A3042 RMK A01 T10071019  RH  091%=      5-min Rain = 0
KFR1 070848Z 01019KT M01/M02 A3042 RMK A01 T10071019  RH  092%=      5-min Rain = 0
KFR1 070849Z 01018G23KT M01/M02 A3042 RMK A01 T10071019  RH  092%=      5-min Rain = 0
KFR1 070850Z 01019KT M01/M02 A3042 RMK A01 T10071018  RH  092%=      5-min Rain = 0
KFR1 070851Z 02018KT M01/M02 A3041 RMK A01 T10071018  RH  092%=      5-min Rain = 0
KFR1 070852Z 02016G24KT M01/M02 A3041 RMK A01 T10071018  RH  092%=      5-min Rain = 0
KFR1 070853Z 01015KT M01/M02 A3041 RMK A01 T10071018  RH  092%=      5-min Rain = 0
KFR1 070854Z 01015G23KT M01/M02 A3041 RMK A01 T10071017  RH  092%=      5-min Rain = 0
KFR1 070855Z 02013KT M01/M02 A3041 RMK A01 T10071017  RH  092%=      5-min Rain = 0
KFR1 070856Z 03015KT M01/M02 A3041 RMK A01 T10071017  RH  093%=      5-min Rain = 0
KFR1 070857Z 03016G22KT M01/M02 A304 RMK A01 T10071018  RH  093%=      5-min Rain = 0
KFR1 070858Z 02019G26KT M01/M02 A304 RMK A01 T10071018  RH  093%=      5-min Rain = 0
KFR1 070859Z 03016G24KT M01/M02 A304 RMK A01 T10081019  RH  092%=      5-min Rain = 0
KFR1 070900Z 01016KT M01/M02 A304 RMK A01 T10081019  RH  092%=      5-min Rain = 0
KFR1 070901Z 01019G27KT M01/M02 A304 RMK A01 T10081020  RH  092%=      5-min Rain = 0
KFR1 070902Z 02019G24KT M01/M02 A304 RMK A01 T10081020  RH  091%=      5-min Rain = 0
KFR1 070903Z 01022KT M01/M02 A304 RMK A01 T10081021  RH  092%=      5-min Rain = 0
KFR1 070904Z 01020G27KT M01/M02 A304 RMK A01 T10081020  RH  092%=      5-min Rain = 0
KFR1 070905Z 01019G25KT M01/M02 A304 RMK A01 T10081020  RH  092%=      5-min Rain = 0
KFR1 070906Z 01018G26KT M01/M02 A3041 RMK A01 T10081020  RH  092%=      5-min Rain = 0
KFR1 070907Z 01020G25KT M01/M02 A3041 RMK A01 T10081020  RH  092%=      5-min Rain = 0
KFR1 070908Z 02018G26KT M01/M02 A3041 RMK A01 T10091021  RH  091%=      5-min Rain = 0
KFR1 070909Z 02019G24KT M01/M02 A3041 RMK A01 T10091021  RH  092%=      5-min Rain = 0
KFR1 070910Z 01020KT M01/M02 A3041 RMK A01 T10091020  RH  092%=      5-min Rain = 0
KFR1 070911Z 02015G21KT M01/M02 A3041 RMK A01 T10091020  RH  092%=      5-min Rain = 0
KFR1 070912Z 01020G28KT M01/M02 A3041 RMK A01 T10081020  RH  092%=      5-min Rain = 0
KFR1 070913Z 01020G25KT M01/M02 A3041 RMK A01 T10081020  RH  092%=      5-min Rain = 0
KFR1 070914Z 01020G27KT M01/M02 A3041 RMK A01 T10081021  RH  091%=      5-min Rain = 0
KFR1 070915Z 02020KT M01/M02 A3041 RMK A01 T10081021  RH  091%=      5-min Rain = 0
KFR1 070916Z 01019G24KT M01/M02 A3041 RMK A01 T10081020  RH  091%=      5-min Rain = 0
KFR1 070917Z 02019G27KT M01/M02 A3041 RMK A01 T10081020  RH  091%=      5-min Rain = 0
KFR1 070918Z 02022G29KT M01/M02 A304 RMK A01 T10091023  RH  090%=      5-min Rain = 0
KFR1 070919Z 02016G22KT M01/M02 A304 RMK A01 T10101024  RH  090%=      5-min Rain = 0
KFR1 070920Z 02018G25KT M01/M02 A304 RMK A01 T10101023  RH  091%=      5-min Rain = 0
KFR1 070921Z 02018G24KT M01/M02 A304 RMK A01 T10101023  RH  091%=      5-min Rain = 0
KFR1 070922Z 02019G25KT M01/M02 A304 RMK A01 T10101023  RH  091%=      5-min Rain = 0
KFR1 070923Z 01022G28KT M01/M02 A304 RMK A01 T10091022  RH  091%=      5-min Rain = 0
KFR1 070924Z 02022G29KT M01/M02 A304 RMK A01 T10101024  RH  090%=      5-min Rain = 0
KFR1 070925Z 03017G25KT M01/M02 A3041 RMK A01 T10101023  RH  090%=      5-min Rain = 0
KFR1 070926Z 02018G25KT M01/M02 A3041 RMK A01 T10091022  RH  091%=      5-min Rain = 0
KFR1 070927Z 01016G22KT M01/M02 A3041 RMK A01 T10091022  RH  091%=      5-min Rain = 0
KFR1 070928Z 01020G25KT M01/M02 A3041 RMK A01 T10091022  RH  091%=      5-min Rain = 0
KFR1 070929Z 01021G27KT M01/M02 A3042 RMK A01 T10091022  RH  091%=      5-min Rain = 0
KFR1 070930Z 02014G22KT M01/M02 A3042 RMK A01 T10091023  RH  090%=      5-min Rain = 0
KFR1 070931Z 02015KT M01/M02 A3042 RMK A01 T10091023  RH  090%=      5-min Rain = 0
KFR1 070932Z 01018KT M01/M02 A3042 RMK A01 T10091022  RH  091%=      5-min Rain = 0
KFR1 070933Z 02014G21KT M01/M02 A3042 RMK A01 T10091023  RH  090%=      5-min Rain = 0
KFR1 070934Z 01018KT M01/M02 A3042 RMK A01 T10101024  RH  090%=      5-min Rain = 0
KFR1 070935Z 02013G21KT M01/M02 A3042 RMK A01 T10101024  RH  090%=      5-min Rain = 0
KFR1 070936Z 01016G24KT M01/M02 A3042 RMK A01 T10091022  RH  091%=      5-min Rain = 0
KFR1 070937Z 02018G23KT M01/M02 A3041 RMK A01 T10101023  RH  091%=      5-min Rain = 0
KFR1 070938Z 03017KT M01/M02 A3041 RMK A01 T10101023  RH  091%=      5-min Rain = 0
KFR1 070939Z 02017G24KT M01/M02 A3041 RMK A01 T10101023  RH  091%=      5-min Rain = 0
KFR1 070940Z 02021G27KT M01/M02 A3041 RMK A01 T10101023  RH  091%=      5-min Rain = 0
KFR1 070941Z 02019KT M01/M02 A3041 RMK A01 T10101023  RH  091%=      5-min Rain = 0
KFR1 070942Z 02016G23KT M01/M02 A3041 RMK A01 T10101023  RH  091%=      5-min Rain = 0
KFR1 070943Z 02012KT M01/M02 A3041 RMK A01 T10101022  RH  091%=      5-min Rain = 0
KFR1 070944Z 02016G22KT M01/M02 A3041 RMK A01 T10101021  RH  092%=      5-min Rain = 0
KFR1 070945Z 02015G21KT M01/M02 A3041 RMK A01 T10101022  RH  091%=      5-min Rain = 0
KFR1 070946Z 02011G21KT M01/M02 A3041 RMK A01 T10091021  RH  092%=      5-min Rain = 0
KFR1 070947Z 03013KT M01/M02 A3041 RMK A01 T10101021  RH  092%=      5-min Rain = 0
KFR1 070948Z 02013KT M01/M02 A3041 RMK A01 T10101021  RH  092%=      5-min Rain = 0
KFR1 070949Z 02017G23KT M01/M02 A3041 RMK A01 T10091020  RH  092%=      5-min Rain = 0
KFR1 070950Z 01015G22KT M01/M02 A3041 RMK A01 T10091021  RH  092%=      5-min Rain = 0
KFR1 070951Z 01019KT M01/M02 A3041 RMK A01 T10091021  RH  092%=      5-min Rain = 0
KFR1 070952Z 01018G24KT M01/M02 A3041 RMK A01 T10101024  RH  091%=      5-min Rain = 0
KFR1 070953Z 02014G19KT M01/M02 A3042 RMK A01 T10101024  RH  090%=      5-min Rain = 0
KFR1 070954Z 01017G22KT M01/M02 A3042 RMK A01 T10101024  RH  090%=      5-min Rain = 0
KFR1 070955Z 03013G19KT M01/M02 A3042 RMK A01 T10101023  RH  090%=      5-min Rain = 0
KFR1 070956Z 04017G24KT M01/M02 A3041 RMK A01 T10101023  RH  091%=      5-min Rain = 0
KFR1 070957Z 03021G28KT M01/M02 A3041 RMK A01 T10091024  RH  090%=      5-min Rain = 0
KFR1 070958Z 03018G26KT M01/M03 A304 RMK A01 T10101025  RH  089%=      5-min Rain = 0
KFR1 070959Z 03017G23KT M01/M03 A304 RMK A01 T10101026  RH  089%=      5-min Rain = 0
KFR1 071000Z 03016G22KT M01/M03 A304 RMK A01 T10101027  RH  089%=      5-min Rain = 0
KFR1 071001Z 03018G26KT M01/M03 A304 RMK A01 T10101025  RH  090%=      5-min Rain = 0
KFR1 071002Z 03019G25KT M01/M03 A304 RMK A01 T10101025  RH  089%=      5-min Rain = 0
KFR1 071003Z 02020G28KT M01/M03 A304 RMK A01 T10101026  RH  089%=      5-min Rain = 0
KFR1 071004Z 03020G26KT M01/M03 A3041 RMK A01 T10101028  RH  088%=      5-min Rain = 0
KFR1 071005Z 03016G23KT M01/M03 A3041 RMK A01 T10111029  RH  087%=      5-min Rain = 0
KFR1 071006Z 02019G25KT M01/M03 A3041 RMK A01 T10111028  RH  088%=      5-min Rain = 0
KFR1 071007Z 02018G23KT M01/M03 A3041 RMK A01 T10101026  RH  089%=      5-min Rain = 0
KFR1 071008Z 01017G25KT M01/M03 A3041 RMK A01 T10101026  RH  089%=      5-min Rain = 0
KFR1 071009Z 02020G28KT M01/M03 A3041 RMK A01 T10101026  RH  089%=      5-min Rain = 0
KFR1 071010Z 01022G29KT M01/M03 A3041 RMK A01 T10101027  RH  088%=      5-min Rain = 0
KFR1 071011Z 03019G28KT M01/M03 A304 RMK A01 T10111029  RH  088%=      5-min Rain = 0
KFR1 071012Z 02016G23KT M01/M03 A3041 RMK A01 T10111027  RH  089%=      5-min Rain = 0
KFR1 071013Z 02017KT M01/M03 A304 RMK A01 T10111027  RH  089%=      5-min Rain = 0
KFR1 071014Z 02018G25KT M01/M03 A304 RMK A01 T10111026  RH  089%=      5-min Rain = 0
KFR1 071015Z 03019G24KT M01/M03 A304 RMK A01 T10101025  RH  090%=      5-min Rain = 0
KFR1 071016Z 04017G23KT M01/M02 A304 RMK A01 T10101024  RH  090%=      5-min Rain = 0
KFR1 071017Z 03019G28KT M01/M03 A304 RMK A01 T10111026  RH  089%=      5-min Rain = 0
KFR1 071018Z 03018KT M01/M03 A304 RMK A01 T10121028  RH  089%=      5-min Rain = 0
KFR1 071019Z 04019KT M01/M03 A304 RMK A01 T10121027  RH  089%=      5-min Rain = 0
KFR1 071020Z 04016G24KT M01/M03 A304 RMK A01 T10121028  RH  089%=      5-min Rain = 0
KFR1 071021Z 04019G25KT M01/M03 A304 RMK A01 T10121028  RH  089%=      5-min Rain = 0
KFR1 071022Z 04019KT M01/M03 A304 RMK A01 T10121028  RH  089%=      5-min Rain = 0
KFR1 071023Z 03020KT M01/M03 A3041 RMK A01 T10121029  RH  089%=      5-min Rain = 0
KFR1 071024Z 03016KT M01/M03 A3041 RMK A01 T10121028  RH  089%=      5-min Rain = 0
KFR1 071025Z 03019G25KT M01/M03 A3041 RMK A01 T10111027  RH  089%=      5-min Rain = 0
KFR1 071026Z 03019G28KT M01/M03 A3041 RMK A01 T10121028  RH  089%=      5-min Rain = 0
KFR1 071027Z 03018G23KT M01/M03 A3041 RMK A01 T10111028  RH  089%=      5-min Rain = 0
KFR1 071028Z 03014G19KT M01/M03 A3041 RMK A01 T10111027  RH  089%=      5-min Rain = 0
KFR1 071029Z 03012G17KT M01/M03 A3041 RMK A01 T10121027  RH  089%=      5-min Rain = 0
KFR1 071030Z 02015G21KT M01/M03 A3041 RMK A01 T10111026  RH  090%=      5-min Rain = 0
KFR1 071031Z 03013G20KT M01/M03 A3041 RMK A01 T10111025  RH  090%=      5-min Rain = 0
KFR1 071032Z 03013G19KT M01/M02 A3041 RMK A01 T10101023  RH  091%=      5-min Rain = 0
KFR1 071033Z 03018G25KT M01/M02 A3041 RMK A01 T10101024  RH  090%=      5-min Rain = 0
KFR1 071034Z 03017G23KT M01/M03 A3041 RMK A01 T10101026  RH  089%=      5-min Rain = 0
KFR1 071035Z 03018G23KT M01/M03 A3041 RMK A01 T10101027  RH  088%=      5-min Rain = 0
KFR1 071036Z 03017G24KT M01/M03 A3041 RMK A01 T10111029  RH  087%=      5-min Rain = 0
KFR1 071037Z 03017G22KT M01/M03 A3041 RMK A01 T10121030  RH  087%=      5-min Rain = 0
KFR1 071038Z 04020G28KT M01/M03 A3041 RMK A01 T10121030  RH  088%=      5-min Rain = 0
KFR1 071039Z 03020G25KT M01/M03 A3041 RMK A01 T10121031  RH  087%=      5-min Rain = 0
KFR1 071040Z 03018KT M01/M03 A3041 RMK A01 T10121031  RH  087%=      5-min Rain = 0
KFR1 071041Z 04017G23KT M01/M03 A3041 RMK A01 T10121031  RH  087%=      5-min Rain = 0
KFR1 071042Z 03018G26KT M01/M03 A3041 RMK A01 T10121031  RH  087%=      5-min Rain = 0
KFR1 071043Z 02023G31KT M01/M03 A3041 RMK A01 T10121031  RH  087%=      5-min Rain = 0
KFR1 071044Z 02022G27KT M01/M03 A3041 RMK A01 T10121033  RH  086%=      5-min Rain = 0
KFR1 071045Z 02014G23KT M01/M03 A3042 RMK A01 T10121033  RH  086%=      5-min Rain = 0
KFR1 071046Z 02017G22KT M01/M03 A3042 RMK A01 T10121032  RH  087%=      5-min Rain = 0
KFR1 071047Z 04015G21KT M01/M03 A3042 RMK A01 T10121032  RH  087%=      5-min Rain = 0
KFR1 071048Z 04021KT M01/M03 A3042 RMK A01 T10121032  RH  087%=      5-min Rain = 0
KFR1 071049Z 04022G28KT M01/M03 A3042 RMK A01 T10121033  RH  086%=      5-min Rain = 0
KFR1 071050Z 04016G22KT M01/M04 A3042 RMK A01 T10131035  RH  085%=      5-min Rain = 0
KFR1 071051Z 02014G22KT M01/M03 A3043 RMK A01 T10131034  RH  086%=      5-min Rain = 0
KFR1 071052Z 03015G20KT M01/M03 A3043 RMK A01 T10131033  RH  087%=      5-min Rain = 0
KFR1 071053Z 03016G21KT M01/M03 A3043 RMK A01 T10131033  RH  086%=      5-min Rain = 0
KFR1 071054Z 03018G25KT M01/M03 A3042 RMK A01 T10131034  RH  086%=      5-min Rain = 0
KFR1 071055Z 03013KT M01/M03 A3043 RMK A01 T10131034  RH  086%=      5-min Rain = 0
KFR1 071056Z 03014KT M01/M03 A3043 RMK A01 T10131033  RH  086%=      5-min Rain = 0
KFR1 071057Z 04015KT M01/M03 A3043 RMK A01 T10131032  RH  087%=      5-min Rain = 0
KFR1 071058Z 02016G22KT M01/M03 A3043 RMK A01 T10131031  RH  088%=      5-min Rain = 0
KFR1 071059Z 04016G21KT M01/M03 A3043 RMK A01 T10131032  RH  087%=      5-min Rain = 0
KFR1 071100Z 04018KT M01/M03 A3043 RMK A01 T10131032  RH  087%=      5-min Rain = 0
KFR1 071101Z 04015KT M01/M03 A3043 RMK A01 T10131033  RH  086%=      5-min Rain = 0
KFR1 071102Z 02015G20KT M01/M03 A3043 RMK A01 T10131032  RH  087%=      5-min Rain = 0
KFR1 071103Z 02015G22KT M01/M03 A3043 RMK A01 T10131031  RH  088%=      5-min Rain = 0
KFR1 071104Z 02016G25KT M01/M03 A3044 RMK A01 T10131030  RH  088%=      5-min Rain = 0
KFR1 071105Z 01017KT M01/M03 A3043 RMK A01 T10131031  RH  088%=      5-min Rain = 0
KFR1 071106Z 01018KT M01/M03 A3043 RMK A01 T10141032  RH  088%=      5-min Rain = 0
KFR1 071107Z 02018G26KT M01/M03 A3043 RMK A01 T10141031  RH  088%=      5-min Rain = 0
KFR1 071108Z 02017G22KT M01/M03 A3043 RMK A01 T10141031  RH  088%=      5-min Rain = 0
KFR1 071109Z 01016G23KT M01/M03 A3043 RMK A01 T10141031  RH  088%=      5-min Rain = 0
KFR1 071110Z 02015G21KT M01/M03 A3043 RMK A01 T10141031  RH  088%=      5-min Rain = 0
KFR1 071111Z 02019G24KT M02/M03 A3043 RMK A01 T10151032  RH  088%=      5-min Rain = 0
KFR1 071112Z 02020G29KT M02/M03 A3043 RMK A01 T10151033  RH  088%=      5-min Rain = 0
KFR1 071113Z 02024KT M02/M03 A3043 RMK A01 T10161034  RH  087%=      5-min Rain = 0
KFR1 071114Z 02018KT M02/M03 A3043 RMK A01 T10151034  RH  087%=      5-min Rain = 0
KFR1 071115Z 02019G26KT M02/M03 A3043 RMK A01 T10151033  RH  088%=      5-min Rain = 0
KFR1 071116Z 04019G26KT M02/M03 A3043 RMK A01 T10151033  RH  088%=      5-min Rain = 0
KFR1 071117Z 03014KT M02/M03 A3043 RMK A01 T10151033  RH  088%=      5-min Rain = 0
KFR1 071118Z 02017G25KT M01/M03 A3044 RMK A01 T10141031  RH  089%=      5-min Rain = 0
KFR1 071119Z 03017KT M01/M03 A3044 RMK A01 T10141031  RH  088%=      5-min Rain = 0
KFR1 071120Z 03013G19KT M01/M03 A3044 RMK A01 T10141030  RH  089%=      5-min Rain = 0
KFR1 071121Z 03014G19KT M01/M03 A3044 RMK A01 T10141031  RH  088%=      5-min Rain = 0
KFR1 071122Z 03017G22KT M01/M03 A3044 RMK A01 T10141031  RH  088%=      5-min Rain = 0
KFR1 071123Z 03019KT M01/M03 A3043 RMK A01 T10141032  RH  087%=      5-min Rain = 0
KFR1 071124Z 03015G21KT M01/M03 A3043 RMK A01 T10141034  RH  087%=      5-min Rain = 0
KFR1 071125Z 03018G23KT M02/M04 A3044 RMK A01 T10151035  RH  086%=      5-min Rain = 0
KFR1 071126Z 03017G23KT M02/M03 A3044 RMK A01 T10151034  RH  087%=      5-min Rain = 0
KFR1 071127Z 02014G19KT M02/M03 A3044 RMK A01 T10151033  RH  087%=      5-min Rain = 0
KFR1 071128Z 02012G17KT M02/M03 A3044 RMK A01 T10151032  RH  088%=      5-min Rain = 0
KFR1 071129Z 02013G20KT M02/M03 A3044 RMK A01 T10151031  RH  089%=      5-min Rain = 0
KFR1 071130Z 02014G20KT M02/M03 A3044 RMK A01 T10151030  RH  089%=      5-min Rain = 0
KFR1 071131Z 01018KT M02/M03 A3044 RMK A01 T10151031  RH  089%=      5-min Rain = 0
KFR1 071132Z 02015G21KT M02/M03 A3044 RMK A01 T10151030  RH  089%=      5-min Rain = 0
KFR1 071133Z 02014KT M01/M03 A3044 RMK A01 T10141029  RH  090%=      5-min Rain = 0
KFR1 071134Z 02015G22KT M01/M03 A3044 RMK A01 T10141028  RH  090%=      5-min Rain = 0
KFR1 071135Z 02017G23KT M01/M03 A3044 RMK A01 T10141029  RH  090%=      5-min Rain = 0
KFR1 071136Z 02016G22KT M01/M03 A3044 RMK A01 T10141029  RH  089%=      5-min Rain = 0
KFR1 071137Z 03015G21KT M01/M03 A3044 RMK A01 T10141029  RH  090%=      5-min Rain = 0
KFR1 071138Z 03012G18KT M01/M03 A3044 RMK A01 T10141029  RH  090%=      5-min Rain = 0
KFR1 071139Z 02016G23KT M01/M03 A3044 RMK A01 T10141029  RH  089%=      5-min Rain = 0
KFR1 071140Z 03020KT M01/M03 A3043 RMK A01 T10141030  RH  089%=      5-min Rain = 0
KFR1 071141Z 03015G20KT M02/M03 A3044 RMK A01 T10151032  RH  088%=      5-min Rain = 0
KFR1 071142Z 02016G21KT M02/M03 A3044 RMK A01 T10151031  RH  089%=      5-min Rain = 0
KFR1 071143Z 03018G23KT M02/M03 A3044 RMK A01 T10151031  RH  089%=      5-min Rain = 0
KFR1 071144Z 03019G24KT M02/M03 A3044 RMK A01 T10151032  RH  088%=      5-min Rain = 0
KFR1 071145Z 03015KT M02/M03 A3044 RMK A01 T10161033  RH  088%=      5-min Rain = 0
KFR1 071146Z 03019G24KT M02/M03 A3044 RMK A01 T10161032  RH  088%=      5-min Rain = 0
KFR1 071147Z 03018G26KT M02/M03 A3044 RMK A01 T10151033  RH  088%=      5-min Rain = 0
KFR1 071148Z 03016G23KT M02/M03 A3044 RMK A01 T10161033  RH  088%=      5-min Rain = 0
KFR1 071149Z 03013G18KT M02/M03 A3044 RMK A01 T10161032  RH  088%=      5-min Rain = 0
KFR1 071150Z 03016G23KT M02/M03 A3044 RMK A01 T10151031  RH  089%=      5-min Rain = 0
KFR1 071151Z 02018G24KT M02/M03 A3044 RMK A01 T10161032  RH  089%=      5-min Rain = 0
KFR1 071152Z 03014KT M02/M03 A3044 RMK A01 T10151031  RH  089%=      5-min Rain = 0
KFR1 071153Z 03017G23KT M02/M03 A3044 RMK A01 T10151031  RH  089%=      5-min Rain = 0
KFR1 071154Z 03020G26KT M02/M03 A3044 RMK A01 T10151031  RH  089%=      5-min Rain = 0
KFR1 071155Z 04014KT M02/M03 A3044 RMK A01 T10151031  RH  089%=      5-min Rain = 0
KFR1 071156Z 04017G22KT M02/M03 A3044 RMK A01 T10151031  RH  089%=      5-min Rain = 0
KFR1 071157Z 04020KT M02/M03 A3044 RMK A01 T10151032  RH  089%=      5-min Rain = 0
KFR1 071158Z 03018G25KT M02/M03 A3044 RMK A01 T10161034  RH  088%=      5-min Rain = 0
KFR1 071159Z 04012KT M02/M03 A3044 RMK A01 T10161034  RH  088%=      5-min Rain = 0
KFR1 071200Z 03012KT M02/M03 A3044 RMK A01 T10161033  RH  088%=      5-min Rain = 0
KFR1 071201Z 02014KT M02/M03 A3044 RMK A01 T10161032  RH  089%=      5-min Rain = 0
KFR1 071202Z 02016G23KT M02/M03 A3044 RMK A01 T10161031  RH  089%=      5-min Rain = 0
KFR1 071203Z 02017G22KT M02/M03 A3044 RMK A01 T10161031  RH  089%=      5-min Rain = 0
KFR1 071204Z 03014KT M02/M03 A3045 RMK A01 T10161031  RH  089%=      5-min Rain = 0
KFR1 071205Z 03012G17KT M02/M03 A3045 RMK A01 T10151030  RH  090%=      5-min Rain = 0
KFR1 071206Z 04013KT M02/M03 A3045 RMK A01 T10151030  RH  090%=      5-min Rain = 0
KFR1 071207Z 04013KT M02/M03 A3045 RMK A01 T10151030  RH  089%=      5-min Rain = 0
KFR1 071208Z 03014KT M02/M03 A3045 RMK A01 T10161031  RH  089%=      5-min Rain = 0
KFR1 071209Z 03014KT M02/M03 A3045 RMK A01 T10161032  RH  089%=      5-min Rain = 0
KFR1 071210Z 03012KT M02/M03 A3045 RMK A01 T10161031  RH  089%=      5-min Rain = 0
KFR1 071211Z 03010KT M02/M03 A3045 RMK A01 T10151030  RH  090%=      5-min Rain = 0
KFR1 071212Z 03012KT M02/M03 A3045 RMK A01 T10151029  RH  090%=      5-min Rain = 0
KFR1 071213Z 04012KT M02/M03 A3045 RMK A01 T10151029  RH  090%=      5-min Rain = 0
KFR1 071214Z 04013KT M02/M03 A3045 RMK A01 T10151029  RH  090%=      5-min Rain = 0
KFR1 071215Z 04013KT M02/M03 A3045 RMK A01 T10151031  RH  089%=      5-min Rain = 0
KFR1 071216Z 03010G16KT M02/M03 A3045 RMK A01 T10161032  RH  089%=      5-min Rain = 0
KFR1 071217Z 02012KT M02/M03 A3045 RMK A01 T10161031  RH  090%=      5-min Rain = 0
KFR1 071218Z 01014KT M02/M03 A3045 RMK A01 T10151028  RH  091%=      5-min Rain = 0
KFR1 071219Z 02013KT M01/M03 A3045 RMK A01 T10141026  RH  092%=      5-min Rain = 0
KFR1 071220Z 01016G21KT M01/M03 A3045 RMK A01 T10141026  RH  092%=      5-min Rain = 0
KFR1 071221Z 02015G26KT M01/M03 A3045 RMK A01 T10141027  RH  091%=      5-min Rain = 0
KFR1 071222Z 01015G20KT M02/M03 A3045 RMK A01 T10151028  RH  091%=      5-min Rain = 0
KFR1 071223Z 01015G20KT M02/M03 A3045 RMK A01 T10161029  RH  091%=      5-min Rain = 0
KFR1 071224Z 02014KT M02/M03 A3045 RMK A01 T10171031  RH  090%=      5-min Rain = 0
KFR1 071225Z 03015KT M02/M03 A3045 RMK A01 T10171031  RH  090%=      5-min Rain = 0
KFR1 071226Z 03015KT M02/M03 A3045 RMK A01 T10171031  RH  091%=      5-min Rain = 0
KFR1 071227Z 04013G18KT M02/M03 A3045 RMK A01 T10171030  RH  091%=      5-min Rain = 0
KFR1 071228Z 02015G20KT M02/M03 A3045 RMK A01 T10171031  RH  090%=      5-min Rain = 0
KFR1 071229Z 02013KT M02/M03 A3045 RMK A01 T10161030  RH  091%=      5-min Rain = 0
KFR1 071230Z 02010G16KT M02/M03 A3045 RMK A01 T10161030  RH  091%=      5-min Rain = 0
KFR1 071231Z 03017KT M02/M03 A3045 RMK A01 T10161029  RH  091%=      5-min Rain = 0
KFR1 071232Z 01014G20KT M02/M03 A3046 RMK A01 T10161030  RH  091%=      5-min Rain = 0
KFR1 071233Z 02012KT M02/M03 A3046 RMK A01 T10171031  RH  090%=      5-min Rain = 0
KFR1 071234Z 02015G24KT M02/M03 A3046 RMK A01 T10181032  RH  090%=      5-min Rain = 0
KFR1 071235Z 01017KT M02/M03 A3046 RMK A01 T10181032  RH  090%=      5-min Rain = 0
KFR1 071236Z 01016G22KT M02/M03 A3046 RMK A01 T10181034  RH  089%=      5-min Rain = 0
KFR1 071237Z 00018G23KT M02/M03 A3046 RMK A01 T10181034  RH  089%=      5-min Rain = 0
KFR1 071238Z 01017G22KT M02/M04 A3046 RMK A01 T10191035  RH  089%=      5-min Rain = 0
KFR1 071239Z 01017KT M02/M04 A3046 RMK A01 T10191035  RH  089%=      5-min Rain = 0
KFR1 071240Z 02014G20KT M02/M04 A3046 RMK A01 T10191035  RH  089%=      5-min Rain = 0
KFR1 071241Z 02011KT M02/M03 A3047 RMK A01 T10181033  RH  090%=      5-min Rain = 0
KFR1 071242Z 01015G21KT M02/M03 A3047 RMK A01 T10171031  RH  090%=      5-min Rain = 0
KFR1 071243Z 02013G19KT M02/M03 A3047 RMK A01 T10171032  RH  090%=      5-min Rain = 0
KFR1 071244Z 02011KT M02/M03 A3047 RMK A01 T10181033  RH  089%=      5-min Rain = 0
KFR1 071245Z 01016KT M02/M03 A3047 RMK A01 T10181034  RH  089%=      5-min Rain = 0
KFR1 071246Z 02019KT M02/M04 A3047 RMK A01 T10191035  RH  089%=      5-min Rain = 0
KFR1 071247Z 03014KT M02/M04 A3047 RMK A01 T10191036  RH  089%=      5-min Rain = 0
KFR1 071248Z 03013KT M02/M03 A3047 RMK A01 T10191034  RH  089%=      5-min Rain = 0
KFR1 071249Z 03017KT M02/M03 A3047 RMK A01 T10191034  RH  089%=      5-min Rain = 0
KFR1 071250Z 03017G22KT M02/M03 A3047 RMK A01 T10181034  RH  089%=      5-min Rain = 0
KFR1 071251Z 03015G21KT M02/M03 A3047 RMK A01 T10181034  RH  089%=      5-min Rain = 0
KFR1 071252Z 03011G17KT M02/M03 A3047 RMK A01 T10181034  RH  089%=      5-min Rain = 0
KFR1 071253Z 03015G21KT M02/M03 A3047 RMK A01 T10181033  RH  090%=      5-min Rain = 0
KFR1 071254Z 03016G21KT M02/M03 A3047 RMK A01 T10181034  RH  089%=      5-min Rain = 0
KFR1 071255Z 03017KT M02/M03 A3047 RMK A01 T10191034  RH  089%=      5-min Rain = 0
KFR1 071256Z 04013G18KT M02/M03 A3047 RMK A01 T10191034  RH  089%=      5-min Rain = 0
KFR1 071257Z 02012KT M02/M03 A3047 RMK A01 T10191034  RH  089%=      5-min Rain = 0
KFR1 071258Z 03013KT M02/M03 A3047 RMK A01 T10191034  RH  090%=      5-min Rain = 0
KFR1 071259Z 04014KT M02/M03 A3047 RMK A01 T10191034  RH  090%=      5-min Rain = 0
KFR1 071300Z 04012KT M02/M03 A3047 RMK A01 T10191034  RH  090%=      5-min Rain = 0
KFR1 071301Z 03014KT M02/M03 A3047 RMK A01 T10191034  RH  090%=      5-min Rain = 0
KFR1 071302Z 02013G19KT M02/M03 A3047 RMK A01 T10191033  RH  090%=      5-min Rain = 0
KFR1 071303Z 03011KT M02/M03 A3047 RMK A01 T10191032  RH  090%=      5-min Rain = 0
KFR1 071304Z 03012G18KT M02/M03 A3047 RMK A01 T10191032  RH  091%=      5-min Rain = 0
KFR1 071305Z 03011KT M02/M03 A3047 RMK A01 T10191033  RH  090%=      5-min Rain = 0
KFR1 071306Z 02011G16KT M02/M03 A3047 RMK A01 T10191033  RH  091%=      5-min Rain = 0
KFR1 071307Z 03014KT M02/M03 A3047 RMK A01 T10191032  RH  091%=      5-min Rain = 0
KFR1 071308Z 03012G19KT M02/M03 A3047 RMK A01 T10191032  RH  091%=      5-min Rain = 0
KFR1 071309Z 03011KT M02/M03 A3047 RMK A01 T10191032  RH  091%=      5-min Rain = 0
KFR1 071310Z 02014KT M02/M03 A3047 RMK A01 T10191032  RH  091%=      5-min Rain = 0
KFR1 071311Z 03017KT M02/M03 A3047 RMK A01 T10191032  RH  091%=      5-min Rain = 0
KFR1 071312Z 04014G21KT M02/M03 A3047 RMK A01 T10191032  RH  091%=      5-min Rain = 0
KFR1 071313Z 01012KT M02/M03 A3047 RMK A01 T10191032  RH  090%=      5-min Rain = 0
KFR1 071314Z 01013G22KT M02/M03 A3047 RMK A01 T10191032  RH  091%=      5-min Rain = 0
KFR1 071315Z 01014G19KT M02/M03 A3047 RMK A01 T10191032  RH  091%=      5-min Rain = 0
KFR1 071316Z 01015KT M02/M03 A3047 RMK A01 T10191033  RH  090%=      5-min Rain = 0
KFR1 071317Z 01017KT M02/M03 A3047 RMK A01 T10191033  RH  090%=      5-min Rain = 0
KFR1 071318Z 02015KT M02/M03 A3048 RMK A01 T10201034  RH  090%=      5-min Rain = 0
KFR1 071319Z 01012G19KT M02/M04 A3048 RMK A01 T10201035  RH  090%=      5-min Rain = 0
KFR1 071320Z 01016KT M02/M03 A3048 RMK A01 T10201034  RH  090%=      5-min Rain = 0
KFR1 071321Z 02014KT M02/M03 A3048 RMK A01 T10191033  RH  091%=      5-min Rain = 0
KFR1 071322Z 02011G17KT M02/M03 A3048 RMK A01 T10191033  RH  090%=      5-min Rain = 0
KFR1 071323Z 01013G18KT M02/M03 A3048 RMK A01 T10191033  RH  090%=      5-min Rain = 0
KFR1 071324Z 02015G21KT M02/M03 A3047 RMK A01 T10191034  RH  090%=      5-min Rain = 0
KFR1 071325Z 04014KT M02/M04 A3047 RMK A01 T10191035  RH  089%=      5-min Rain = 0
KFR1 071326Z 03011KT M02/M04 A3047 RMK A01 T10191036  RH  088%=      5-min Rain = 0
KFR1 071327Z 03014G19KT M02/M04 A3048 RMK A01 T10191036  RH  088%=      5-min Rain = 0
KFR1 071328Z 03013KT M02/M04 A3048 RMK A01 T10191036  RH  088%=      5-min Rain = 0
KFR1 071329Z 02014G20KT M02/M04 A3048 RMK A01 T10201037  RH  088%=      5-min Rain = 0
KFR1 071330Z 01014G19KT M02/M04 A3048 RMK A01 T10201037  RH  088%=      5-min Rain = 0
KFR1 071331Z 02018KT M02/M04 A3048 RMK A01 T10201038  RH  087%=      5-min Rain = 0
KFR1 071332Z 02016KT M02/M04 A3048 RMK A01 T10201040  RH  087%=      5-min Rain = 0
KFR1 071333Z 01013G21KT M02/M04 A3048 RMK A01 T10201039  RH  087%=      5-min Rain = 0
KFR1 071334Z 01013G18KT M02/M04 A3048 RMK A01 T10211039  RH  087%=      5-min Rain = 0
KFR1 071335Z 03012KT M02/M04 A3048 RMK A01 T10211039  RH  087%=      5-min Rain = 0
KFR1 071336Z 02012G17KT M02/M04 A3048 RMK A01 T10211039  RH  087%=      5-min Rain = 0
KFR1 071337Z 01015KT M02/M04 A3048 RMK A01 T10211039  RH  087%=      5-min Rain = 0
KFR1 071338Z 01014KT M02/M04 A3048 RMK A01 T10211040  RH  086%=      5-min Rain = 0
KFR1 071339Z 01014KT M02/M04 A3048 RMK A01 T10211040  RH  086%=      5-min Rain = 0
KFR1 071340Z 01014G19KT M02/M04 A3048 RMK A01 T10201040  RH  086%=      5-min Rain = 0
KFR1 071341Z 00017KT M02/M04 A3048 RMK A01 T10211041  RH  086%=      5-min Rain = 0
KFR1 071342Z 02016KT M02/M04 A3048 RMK A01 T10211042  RH  086%=      5-min Rain = 0
KFR1 071343Z 01014G19KT M02/M04 A3048 RMK A01 T10211042  RH  086%=      5-min Rain = 0
KFR1 071344Z 02014KT M02/M04 A3048 RMK A01 T10211042  RH  085%=      5-min Rain = 0
KFR1 071345Z 02014KT M02/M04 A3048 RMK A01 T10211042  RH  085%=      5-min Rain = 0
KFR1 071346Z 03013G19KT M02/M04 A3048 RMK A01 T10201041  RH  086%=      5-min Rain = 0
KFR1 071347Z 02011KT M02/M04 A3048 RMK A01 T10201039  RH  086%=      5-min Rain = 0
KFR1 071348Z 02014G19KT M02/M04 A3048 RMK A01 T10191039  RH  086%=      5-min Rain = 0
KFR1 071349Z 03011KT M02/M04 A3048 RMK A01 T10191040  RH  085%=      5-min Rain = 0
KFR1 071350Z 02011G16KT M02/M04 A3048 RMK A01 T10191040  RH  086%=      5-min Rain = 0
KFR1 071351Z 00014G20KT M02/M04 A3049 RMK A01 T10191040  RH  086%=      5-min Rain = 0
KFR1 071352Z 04014KT M02/M04 A3048 RMK A01 T10191040  RH  086%=      5-min Rain = 0
KFR1 071353Z 01010G15KT M02/M04 A3049 RMK A01 T10181039  RH  086%=      5-min Rain = 0
KFR1 071354Z 02013G19KT M02/M04 A3049 RMK A01 T10191039  RH  086%=      5-min Rain = 0
KFR1 071355Z 01014KT M02/M04 A3049 RMK A01 T10191040  RH  085%=      5-min Rain = 0
KFR1 071356Z 02012KT M02/M04 A3049 RMK A01 T10191041  RH  085%=      5-min Rain = 0
KFR1 071357Z 02015KT M02/M04 A3049 RMK A01 T10191041  RH  085%=      5-min Rain = 0
KFR1 071358Z 02017G22KT M02/M04 A3049 RMK A01 T10191041  RH  085%=      5-min Rain = 0
KFR1 071359Z 02012G18KT M02/M04 A3049 RMK A01 T10181041  RH  084%=      5-min Rain = 0
KFR1 071400Z 03013G20KT M02/M04 A3049 RMK A01 T10181041  RH  085%=      5-min Rain = 0
KFR1 071401Z 02011KT M02/M04 A3049 RMK A01 T10181040  RH  085%=      5-min Rain = 0
KFR1 071402Z 03012G18KT M02/M04 A3049 RMK A01 T10171040  RH  085%=      5-min Rain = 0
KFR1 071403Z 03015KT M02/M04 A3049 RMK A01 T10181042  RH  084%=      5-min Rain = 0
KFR1 071404Z 02009G14KT M02/M04 A3049 RMK A01 T10181042  RH  083%=      5-min Rain = 0
KFR1 071405Z 03013G18KT M02/M04 A3049 RMK A01 T10181041  RH  084%=      5-min Rain = 0
KFR1 071406Z 03014KT M02/M04 A3049 RMK A01 T10171041  RH  084%=      5-min Rain = 0
KFR1 071407Z 01009G14KT M02/M04 A3049 RMK A01 T10171042  RH  083%=      5-min Rain = 0
KFR1 071408Z 02012G17KT M02/M04 A3049 RMK A01 T10171040  RH  084%=      5-min Rain = 0
KFR1 071409Z 01015G22KT M02/M04 A3049 RMK A01 T10171041  RH  084%=      5-min Rain = 0
KFR1 071410Z 02014KT M02/M04 A3049 RMK A01 T10171043  RH  083%=      5-min Rain = 0
KFR1 071411Z 02014G19KT M02/M04 A3049 RMK A01 T10171041  RH  084%=      5-min Rain = 0
KFR1 071412Z 02012KT M02/M04 A3049 RMK A01 T10171042  RH  083%=      5-min Rain = 0
KFR1 071413Z 01012G17KT M02/M04 A3049 RMK A01 T10171042  RH  083%=      5-min Rain = 0
KFR1 071414Z 04014KT M02/M04 A3049 RMK A01 T10171040  RH  084%=      5-min Rain = 0
KFR1 071415Z 04015KT M02/M04 A3049 RMK A01 T10171042  RH  083%=      5-min Rain = 0
KFR1 071416Z 04015G22KT M02/M04 A3049 RMK A01 T10181044  RH  082%=      5-min Rain = 0
KFR1 071417Z 04017KT M02/M05 A3049 RMK A01 T10181046  RH  082%=      5-min Rain = 0
KFR1 071418Z 04017G24KT M02/M05 A3049 RMK A01 T10181046  RH  081%=      5-min Rain = 0
KFR1 071419Z 03018KT M02/M05 A3049 RMK A01 T10181048  RH  080%=      5-min Rain = 0
KFR1 071420Z 03016KT M02/M05 A3049 RMK A01 T10181047  RH  081%=      5-min Rain = 0
KFR1 071421Z 03016KT M02/M05 A3049 RMK A01 T10181047  RH  081%=      5-min Rain = 0
KFR1 071422Z 03016G21KT M02/M05 A305 RMK A01 T10181045  RH  082%=      5-min Rain = 0
KFR1 071423Z 03013KT M02/M05 A305 RMK A01 T10171045  RH  082%=      5-min Rain = 0
KFR1 071424Z 04012KT M02/M05 A305 RMK A01 T10171045  RH  081%=      5-min Rain = 0
KFR1 071425Z 04018KT M02/M05 A305 RMK A01 T10171046  RH  081%=      5-min Rain = 0
KFR1 071426Z 04019KT M02/M05 A305 RMK A01 T10181047  RH  080%=      5-min Rain = 0
KFR1 071427Z 04016KT M02/M05 A305 RMK A01 T10181048  RH  080%=      5-min Rain = 0
KFR1 071428Z 04014KT M02/M05 A305 RMK A01 T10181048  RH  080%=      5-min Rain = 0
KFR1 071429Z 04015KT M02/M05 A305 RMK A01 T10181047  RH  081%=      5-min Rain = 0
KFR1 071430Z 03011KT M02/M05 A305 RMK A01 T10181046  RH  081%=      5-min Rain = 0
KFR1 071431Z 03012G17KT M02/M05 A3051 RMK A01 T10181045  RH  082%=      5-min Rain = 0
KFR1 071432Z 03012KT M02/M05 A3051 RMK A01 T10181046  RH  081%=      5-min Rain = 0
KFR1 071433Z 03012KT M02/M05 A3051 RMK A01 T10181046  RH  081%=      5-min Rain = 0
KFR1 071434Z 02010G16KT M02/M05 A3051 RMK A01 T10181045  RH  082%=      5-min Rain = 0
KFR1 071435Z 01012KT M02/M04 A3051 RMK A01 T10181044  RH  082%=      5-min Rain = 0
KFR1 071436Z 02011KT M02/M04 A3051 RMK A01 T10181044  RH  082%=      5-min Rain = 0
KFR1 071437Z 01013G18KT M02/M04 A3052 RMK A01 T10171043  RH  083%=      5-min Rain = 0
KFR1 071438Z 02014KT M02/M04 A3052 RMK A01 T10171042  RH  083%=      5-min Rain = 0
KFR1 071439Z 02012KT M02/M04 A3052 RMK A01 T10171043  RH  083%=      5-min Rain = 0
KFR1 071440Z 01012G20KT M02/M04 A3052 RMK A01 T10161043  RH  082%=      5-min Rain = 0
KFR1 071441Z 03010KT M02/M04 A3052 RMK A01 T10161043  RH  082%=      5-min Rain = 0
KFR1 071442Z 02015G20KT M02/M04 A3052 RMK A01 T10171043  RH  082%=      5-min Rain = 0
KFR1 071443Z 01015KT M02/M05 A3052 RMK A01 T10171045  RH  081%=      5-min Rain = 0
KFR1 071444Z 01017KT M02/M05 A3052 RMK A01 T10171045  RH  081%=      5-min Rain = 0
KFR1 071445Z 00016G22KT M02/M05 A3052 RMK A01 T10171046  RH  080%=      5-min Rain = 0
KFR1 071446Z 02014KT M02/M05 A3052 RMK A01 T10171046  RH  081%=      5-min Rain = 0
KFR1 071447Z 02008KT M02/M04 A3052 RMK A01 T10171044  RH  082%=      5-min Rain = 0
KFR1 071448Z 02012G17KT M02/M04 A3052 RMK A01 T10161041  RH  083%=      5-min Rain = 0
KFR1 071449Z 03012G18KT M02/M04 A3052 RMK A01 T10161041  RH  083%=      5-min Rain = 0
KFR1 071450Z 03009G14KT M02/M04 A3052 RMK A01 T10161042  RH  082%=      5-min Rain = 0
KFR1 071451Z 03009G15KT M02/M04 A3052 RMK A01 T10151042  RH  082%=      5-min Rain = 0
KFR1 071452Z 02012G18KT M02/M04 A3052 RMK A01 T10161043  RH  082%=      5-min Rain = 0
KFR1 071453Z 01013KT M02/M04 A3052 RMK A01 T10161044  RH  081%=      5-min Rain = 0
KFR1 071454Z 01015KT M02/M04 A3052 RMK A01 T10161044  RH  081%=      5-min Rain = 0
KFR1 071455Z 02014KT M02/M04 A3052 RMK A01 T10151042  RH  082%=      5-min Rain = 0
KFR1 071456Z 01015G22KT M02/M04 A3052 RMK A01 T10151043  RH  082%=      5-min Rain = 0
KFR1 071457Z 03014G20KT M02/M04 A3052 RMK A01 T10151044  RH  081%=      5-min Rain = 0
KFR1 071458Z 01016KT M02/M05 A3052 RMK A01 T10161045  RH  080%=      5-min Rain = 0
KFR1 071459Z 02016G22KT M02/M05 A3052 RMK A01 T10161046  RH  080%=      5-min Rain = 0
KFR1 071500Z 02016G22KT M02/M04 A3052 RMK A01 T10161044  RH  081%=      5-min Rain = 0
KFR1 071501Z 02016KT M02/M05 A3052 RMK A01 T10161045  RH  081%=      5-min Rain = 0
KFR1 071502Z 02013G18KT M02/M04 A3052 RMK A01 T10161044  RH  081%=      5-min Rain = 0
KFR1 071503Z 03016G21KT M02/M04 A3052 RMK A01 T10151042  RH  082%=      5-min Rain = 0
KFR1 071504Z 02012G19KT M02/M05 A3052 RMK A01 T10161045  RH  081%=      5-min Rain = 0
KFR1 071505Z 02013KT M02/M04 A3052 RMK A01 T10161044  RH  081%=      5-min Rain = 0
KFR1 071506Z 02010G15KT M02/M04 A3052 RMK A01 T10161044  RH  082%=      5-min Rain = 0
KFR1 071507Z 02009G14KT M02/M04 A3052 RMK A01 T10161042  RH  082%=      5-min Rain = 0
KFR1 071508Z 03010KT M02/M04 A3052 RMK A01 T10151040  RH  083%=      5-min Rain = 0
KFR1 071509Z 01014KT M02/M04 A3052 RMK A01 T10151041  RH  082%=      5-min Rain = 0
KFR1 071510Z 02014G21KT M02/M04 A3052 RMK A01 T10151043  RH  081%=      5-min Rain = 0
KFR1 071511Z 03011G17KT M02/M05 A3053 RMK A01 T10151045  RH  080%=      5-min Rain = 0
KFR1 071512Z 02012G17KT M02/M04 A3053 RMK A01 T10151044  RH  081%=      5-min Rain = 0
KFR1 071513Z 01015KT M02/M04 A3053 RMK A01 T10151043  RH  081%=      5-min Rain = 0
KFR1 071514Z 01012G19KT M02/M04 A3053 RMK A01 T10151044  RH  081%=      5-min Rain = 0
KFR1 071515Z 03010G16KT M02/M04 A3053 RMK A01 T10151043  RH  081%=      5-min Rain = 0
KFR1 071516Z 02011G16KT M02/M04 A3053 RMK A01 T10151043  RH  081%=      5-min Rain = 0
KFR1 071517Z 02013G21KT M02/M04 A3053 RMK A01 T10151044  RH  081%=      5-min Rain = 0
KFR1 071518Z 03013G18KT M02/M05 A3053 RMK A01 T10151045  RH  080%=      5-min Rain = 0
KFR1 071519Z 01015G21KT M02/M05 A3053 RMK A01 T10151045  RH  080%=      5-min Rain = 0
KFR1 071520Z 00016G22KT M02/M05 A3053 RMK A01 T10151045  RH  080%=      5-min Rain = 0
KFR1 071521Z 01018KT M02/M05 A3053 RMK A01 T10151046  RH  079%=      5-min Rain = 0
KFR1 071522Z 02013KT M02/M05 A3053 RMK A01 T10151046  RH  080%=      5-min Rain = 0
KFR1 071523Z 01015G20KT M02/M05 A3053 RMK A01 T10161045  RH  081%=      5-min Rain = 0
KFR1 071524Z 01015KT M02/M05 A3053 RMK A01 T10151045  RH  080%=      5-min Rain = 0
KFR1 071525Z 01014G19KT M02/M05 A3053 RMK A01 T10151045  RH  080%=      5-min Rain = 0
KFR1 071526Z 02013KT M02/M04 A3053 RMK A01 T10151044  RH  081%=      5-min Rain = 0
KFR1 071527Z 02009G15KT M02/M04 A3053 RMK A01 T10151042  RH  082%=      5-min Rain = 0
KFR1 071528Z 03009KT M01/M04 A3053 RMK A01 T10141040  RH  083%=      5-min Rain = 0
KFR1 071529Z 02011KT M01/M04 A3053 RMK A01 T10131039  RH  083%=      5-min Rain = 0
KFR1 071530Z 04011G18KT M01/M04 A3053 RMK A01 T10131040  RH  082%=      5-min Rain = 0
KFR1 071531Z 04013KT M01/M04 A3053 RMK A01 T10141044  RH  080%=      5-min Rain = 0
KFR1 071532Z 04015KT M01/M05 A3053 RMK A01 T10141046  RH  079%=      5-min Rain = 0
KFR1 071533Z 03012KT M02/M05 A3053 RMK A01 T10151045  RH  080%=      5-min Rain = 0
KFR1 071534Z 02015G22KT M02/M05 A3053 RMK A01 T10151045  RH  080%=      5-min Rain = 0
KFR1 071535Z 02011G16KT M02/M05 A3053 RMK A01 T10151046  RH  079%=      5-min Rain = 0
KFR1 071536Z 03014G21KT M02/M05 A3053 RMK A01 T10151046  RH  079%=      5-min Rain = 0
KFR1 071537Z 03015G21KT M02/M05 A3053 RMK A01 T10151047  RH  079%=      5-min Rain = 0
KFR1 071538Z 04019KT M02/M05 A3053 RMK A01 T10151048  RH  078%=      5-min Rain = 0
KFR1 071539Z 03016G22KT M02/M05 A3053 RMK A01 T10151049  RH  078%=      5-min Rain = 0
KFR1 071540Z 04019KT M02/M05 A3053 RMK A01 T10161050  RH  078%=      5-min Rain = 0
KFR1 071541Z 03017KT M02/M05 A3053 RMK A01 T10161049  RH  078%=      5-min Rain = 0
KFR1 071542Z 03014G20KT M02/M05 A3054 RMK A01 T10161049  RH  078%=      5-min Rain = 0
KFR1 071543Z 03009KT M02/M05 A3054 RMK A01 T10161049  RH  078%=      5-min Rain = 0
KFR1 071544Z 03011G16KT M02/M05 A3054 RMK A01 T10161047  RH  079%=      5-min Rain = 0
KFR1 071545Z 03009KT M02/M05 A3054 RMK A01 T10151045  RH  080%=      5-min Rain = 0
KFR1 071546Z 03008KT M01/M04 A3054 RMK A01 T10141042  RH  081%=      5-min Rain = 0
KFR1 071547Z 02011KT M01/M04 A3054 RMK A01 T10141043  RH  081%=      5-min Rain = 0
KFR1 071548Z 02014G19KT M01/M04 A3054 RMK A01 T10141043  RH  081%=      5-min Rain = 0
KFR1 071549Z 03013G20KT M01/M04 A3054 RMK A01 T10141043  RH  080%=      5-min Rain = 0
KFR1 071550Z 02009G14KT M01/M04 A3054 RMK A01 T10141042  RH  081%=      5-min Rain = 0
KFR1 071551Z 01013KT M01/M04 A3054 RMK A01 T10141042  RH  081%=      5-min Rain = 0
KFR1 071552Z 01014G19KT M01/M04 A3054 RMK A01 T10141044  RH  080%=      5-min Rain = 0
KFR1 071553Z 02014KT M02/M05 A3054 RMK A01 T10151045  RH  080%=      5-min Rain = 0
KFR1 071554Z 03012KT M02/M05 A3054 RMK A01 T10151045  RH  080%=      5-min Rain = 0
KFR1 071555Z 04011KT M02/M04 A3054 RMK A01 T10151043  RH  081%=      5-min Rain = 0
KFR1 071556Z 02010G16KT M02/M04 A3054 RMK A01 T10151044  RH  080%=      5-min Rain = 0
KFR1 071557Z 03014KT M01/M04 A3054 RMK A01 T10141044  RH  080%=      5-min Rain = 0
KFR1 071558Z 03014G19KT M01/M05 A3054 RMK A01 T10141046  RH  079%=      5-min Rain = 0
KFR1 071559Z 05017KT M01/M05 A3054 RMK A01 T10141047  RH  078%=      5-min Rain = 0
KFR1 071600Z 04014KT M02/M05 A3054 RMK A01 T10151048  RH  078%=      5-min Rain = 0
KFR1 071601Z 04015KT M02/M05 A3054 RMK A01 T10151047  RH  079%=      5-min Rain = 0
KFR1 071602Z 03012KT M01/M05 A3054 RMK A01 T10141047  RH  079%=      5-min Rain = 0
KFR1 071603Z 02014KT M01/M05 A3054 RMK A01 T10141046  RH  079%=      5-min Rain = 0
KFR1 071604Z 03013G18KT M01/M05 A3054 RMK A01 T10141045  RH  079%=      5-min Rain = 0
KFR1 071605Z 04010KT M01/M05 A3054 RMK A01 T10141045  RH  079%=      5-min Rain = 0
KFR1 071606Z 03015KT M01/M05 A3054 RMK A01 T10141045  RH  079%=      5-min Rain = 0
KFR1 071607Z 03016G22KT M01/M05 A3054 RMK A01 T10141046  RH  079%=      5-min Rain = 0
KFR1 071608Z 02017G24KT M01/M05 A3053 RMK A01 T10141047  RH  078%=      5-min Rain = 0
KFR1 071609Z 03015G20KT M02/M05 A3054 RMK A01 T10151048  RH  078%=      5-min Rain = 0
KFR1 071610Z 04014KT M02/M05 A3053 RMK A01 T10151047  RH  079%=      5-min Rain = 0
KFR1 071611Z 04016KT M02/M05 A3053 RMK A01 T10151047  RH  078%=      5-min Rain = 0
KFR1 071612Z 04013KT M02/M05 A3053 RMK A01 T10151047  RH  079%=      5-min Rain = 0
KFR1 071613Z 04013G18KT M02/M05 A3053 RMK A01 T10151046  RH  079%=      5-min Rain = 0
KFR1 071614Z 04014KT M02/M05 A3053 RMK A01 T10151046  RH  079%=      5-min Rain = 0
KFR1 071615Z 04014KT M02/M05 A3053 RMK A01 T10151045  RH  079%=      5-min Rain = 0
KFR1 071616Z 04015KT M02/M05 A3053 RMK A01 T10151046  RH  079%=      5-min Rain = 0
KFR1 071617Z 04014G19KT M02/M05 A3053 RMK A01 T10151046  RH  079%=      5-min Rain = 0
KFR1 071618Z 04014KT M02/M05 A3053 RMK A01 T10151046  RH  079%=      5-min Rain = 0
KFR1 071619Z 02012G20KT M01/M04 A3053 RMK A01 T10141044  RH  080%=      5-min Rain = 0
KFR1 071620Z 02013G20KT M01/M04 A3053 RMK A01 T10131044  RH  079%=      5-min Rain = 0
KFR1 071621Z 02012G19KT M01/M05 A3053 RMK A01 T10131045  RH  079%=      5-min Rain = 0
KFR1 071622Z 03018KT M01/M05 A3053 RMK A01 T10141046  RH  079%=      5-min Rain = 0
KFR1 071623Z 03019G24KT M01/M05 A3053 RMK A01 T10141047  RH  078%=      5-min Rain = 0
KFR1 071624Z 02017G23KT M01/M05 A3053 RMK A01 T10141049  RH  077%=      5-min Rain = 0
KFR1 071625Z 04016KT M02/M05 A3053 RMK A01 T10151050  RH  077%=      5-min Rain = 0
KFR1 071626Z 04015KT M02/M05 A3053 RMK A01 T10151050  RH  077%=      5-min Rain = 0
KFR1 071627Z 04017G22KT M02/M05 A3053 RMK A01 T10151051  RH  077%=      5-min Rain = 0
KFR1 071628Z 04017G23KT M02/M05 A3053 RMK A01 T10151051  RH  077%=      5-min Rain = 0
KFR1 071629Z 04019G24KT M02/M05 A3053 RMK A01 T10151050  RH  077%=      5-min Rain = 0
KFR1 071630Z 04016KT M02/M05 A3053 RMK A01 T10151050  RH  077%=      5-min Rain = 0
KFR1 071631Z 03013G19KT M02/M05 A3053 RMK A01 T10151049  RH  077%=      5-min Rain = 0
KFR1 071632Z 03014G19KT M02/M05 A3053 RMK A01 T10151049  RH  078%=      5-min Rain = 0
KFR1 071633Z 04013G19KT M02/M05 A3053 RMK A01 T10151048  RH  078%=      5-min Rain = 0
KFR1 071634Z 03018KT M02/M05 A3053 RMK A01 T10151049  RH  077%=      5-min Rain = 0
KFR1 071635Z 03016G22KT M02/M05 A3053 RMK A01 T10151050  RH  077%=      5-min Rain = 0
KFR1 071636Z 02014G19KT M02/M05 A3053 RMK A01 T10151050  RH  077%=      5-min Rain = 0
KFR1 071637Z 03017G22KT M02/M05 A3053 RMK A01 T10151049  RH  078%=      5-min Rain = 0
KFR1 071638Z 03016KT M02/M05 A3053 RMK A01 T10151049  RH  078%=      5-min Rain = 0
KFR1 071639Z 04014KT M02/M05 A3053 RMK A01 T10151049  RH  078%=      5-min Rain = 0
KFR1 071640Z 03018KT M02/M05 A3053 RMK A01 T10151048  RH  078%=      5-min Rain = 0
KFR1 071641Z 03014G19KT M02/M05 A3053 RMK A01 T10151048  RH  078%=      5-min Rain = 0
KFR1 071642Z 04010KT M02/M05 A3053 RMK A01 T10151048  RH  078%=      5-min Rain = 0
KFR1 071643Z 04010KT M01/M05 A3053 RMK A01 T10141045  RH  079%=      5-min Rain = 0
KFR1 071644Z 03009KT M01/M04 A3053 RMK A01 T10141044  RH  080%=      5-min Rain = 0
KFR1 071645Z 03009KT M01/M04 A3053 RMK A01 T10131042  RH  080%=      5-min Rain = 0
KFR1 071646Z 03011G18KT M01/M04 A3053 RMK A01 T10121041  RH  081%=      5-min Rain = 0
KFR1 071647Z 03010KT M01/M04 A3053 RMK A01 T10121042  RH  080%=      5-min Rain = 0
KFR1 071648Z 03012KT M01/M04 A3053 RMK A01 T10121042  RH  080%=      5-min Rain = 0
KFR1 071649Z 03010KT M01/M04 A3053 RMK A01 T10121043  RH  080%=      5-min Rain = 0
KFR1 071650Z 02011KT M01/M04 A3053 RMK A01 T10121042  RH  080%=      5-min Rain = 0
KFR1 071651Z 03010G19KT M01/M04 A3053 RMK A01 T10121043  RH  079%=      5-min Rain = 0
KFR1 071652Z 03011G16KT M01/M04 A3053 RMK A01 T10121043  RH  079%=      5-min Rain = 0
KFR1 071653Z 02013G19KT M01/M04 A3053 RMK A01 T10121044  RH  079%=      5-min Rain = 0
KFR1 071654Z 03015G21KT M01/M04 A3053 RMK A01 T10121044  RH  079%=      5-min Rain = 0
KFR1 071655Z 01012KT M01/M04 A3053 RMK A01 T10121044  RH  079%=      5-min Rain = 0
KFR1 071656Z 02012G17KT M01/M04 A3053 RMK A01 T10121044  RH  079%=      5-min Rain = 0
KFR1 071657Z 02013KT M01/M04 A3053 RMK A01 T10111043  RH  079%=      5-min Rain = 0
KFR1 071658Z 03012G17KT M01/M04 A3053 RMK A01 T10121043  RH  079%=      5-min Rain = 0
KFR1 071659Z 03010KT M01/M04 A3053 RMK A01 T10111042  RH  080%=      5-min Rain = 0
KFR1 071700Z 03013KT M01/M04 A3053 RMK A01 T10111042  RH  079%=      5-min Rain = 0
KFR1 071701Z 03012KT M01/M04 A3053 RMK A01 T10111043  RH  078%=      5-min Rain = 0
KFR1 071702Z 04016KT M01/M05 A3053 RMK A01 T10111045  RH  078%=      5-min Rain = 0
KFR1 071703Z 04015KT M01/M05 A3053 RMK A01 T10111046  RH  077%=      5-min Rain = 0
KFR1 071704Z 04015KT M01/M05 A3053 RMK A01 T10121045  RH  078%=      5-min Rain = 0
KFR1 071705Z 04016KT M01/M05 A3053 RMK A01 T10111045  RH  078%=      5-min Rain = 0
KFR1 071706Z 04015KT M01/M05 A3053 RMK A01 T10121045  RH  078%=      5-min Rain = 0
KFR1 071707Z 04012G17KT M01/M05 A3053 RMK A01 T10111046  RH  078%=      5-min Rain = 0
KFR1 071708Z 03014KT M01/M05 A3053 RMK A01 T10121046  RH  078%=      5-min Rain = 0
KFR1 071709Z 04010KT M01/M04 A3053 RMK A01 T10111044  RH  078%=      5-min Rain = 0
KFR1 071710Z 03016G22KT M01/M04 A3053 RMK A01 T10111044  RH  078%=      5-min Rain = 0
KFR1 071711Z 03011KT M01/M05 A3053 RMK A01 T10111045  RH  078%=      5-min Rain = 0
KFR1 071712Z 03009G14KT M01/M04 A3054 RMK A01 T10111044  RH  078%=      5-min Rain = 0
KFR1 071713Z 02013KT M01/M04 A3054 RMK A01 T10111044  RH  079%=      5-min Rain = 0
KFR1 071714Z 02013KT M01/M04 A3054 RMK A01 T10111043  RH  079%=      5-min Rain = 0
KFR1 071715Z 03011KT M01/M04 A3053 RMK A01 T10111043  RH  079%=      5-min Rain = 0
KFR1 071716Z 03011KT M01/M04 A3053 RMK A01 T10111042  RH  079%=      5-min Rain = 0
KFR1 071717Z 04012KT M01/M04 A3053 RMK A01 T10111042  RH  079%=      5-min Rain = 0
KFR1 071718Z 04015KT M01/M04 A3053 RMK A01 T10111043  RH  079%=      5-min Rain = 0
KFR1 071719Z 04014KT M01/M04 A3053 RMK A01 T10111044  RH  079%=      5-min Rain = 0
KFR1 071720Z 04014KT M01/M04 A3053 RMK A01 T10121044  RH  079%=      5-min Rain = 0
KFR1 071721Z 03014KT M01/M04 A3053 RMK A01 T10121044  RH  079%=      5-min Rain = 0
KFR1 071722Z 02014KT M01/M04 A3053 RMK A01 T10121044  RH  079%=      5-min Rain = 0
KFR1 071723Z 02012KT M01/M04 A3053 RMK A01 T10121043  RH  079%=      5-min Rain = 0
KFR1 071724Z 04014KT M01/M04 A3053 RMK A01 T10121043  RH  080%=      5-min Rain = 0
KFR1 071725Z 04014G19KT M01/M04 A3053 RMK A01 T10121043  RH  079%=      5-min Rain = 0
KFR1 071726Z 04014KT M01/M04 A3053 RMK A01 T10121043  RH  079%=      5-min Rain = 0
KFR1 071727Z 02010G16KT M01/M04 A3053 RMK A01 T10121043  RH  080%=      5-min Rain = 0
KFR1 071728Z 02010G15KT M01/M04 A3053 RMK A01 T10111042  RH  080%=      5-min Rain = 0
KFR1 071729Z 02012G17KT M01/M04 A3053 RMK A01 T10111041  RH  080%=      5-min Rain = 0
KFR1 071730Z 02013KT M01/M04 A3053 RMK A01 T10111040  RH  080%=      5-min Rain = 0
KFR1 071731Z 02010G16KT M01/M04 A3053 RMK A01 T10111041  RH  080%=      5-min Rain = 0
KFR1 071732Z 03010G15KT M01/M04 A3053 RMK A01 T10101040  RH  080%=      5-min Rain = 0
KFR1 071733Z 02012KT M01/M04 A3053 RMK A01 T10101039  RH  081%=      5-min Rain = 0
KFR1 071734Z 03011KT M01/M04 A3053 RMK A01 T10101040  RH  080%=      5-min Rain = 0
KFR1 071735Z 02009KT M01/M04 A3053 RMK A01 T10101039  RH  080%=      5-min Rain = 0
KFR1 071736Z 03011KT M01/M04 A3053 RMK A01 T10101039  RH  080%=      5-min Rain = 0
KFR1 071737Z 03009KT M01/M04 A3053 RMK A01 T10101040  RH  080%=      5-min Rain = 0
KFR1 071738Z 05012KT M01/M04 A3053 RMK A01 T10101039  RH  080%=      5-min Rain = 0
KFR1 071739Z 03012KT M01/M04 A3053 RMK A01 T10101041  RH  079%=      5-min Rain = 0
KFR1 071740Z 03014G19KT M01/M04 A3053 RMK A01 T10101042  RH  079%=      5-min Rain = 0
KFR1 071741Z 03014KT M01/M04 A3052 RMK A01 T10101042  RH  079%=      5-min Rain = 0
KFR1 071742Z 03010KT M01/M04 A3053 RMK A01 T10101042  RH  079%=      5-min Rain = 0
KFR1 071743Z 02009G14KT M01/M04 A3053 RMK A01 T10101040  RH  080%=      5-min Rain = 0
KFR1 071744Z 02008KT M01/M04 A3053 RMK A01 T10091041  RH  079%=      5-min Rain = 0
KFR1 071745Z 02012KT M01/M04 A3053 RMK A01 T10091041  RH  079%=      5-min Rain = 0
KFR1 071746Z 02012KT M01/M04 A3053 RMK A01 T10091041  RH  078%=      5-min Rain = 0
KFR1 071747Z 03008G13KT M01/M04 A3053 RMK A01 T10091041  RH  078%=      5-min Rain = 0
KFR1 071748Z 04012KT M01/M04 A3053 RMK A01 T10081040  RH  079%=      5-min Rain = 0
KFR1 071749Z 04009KT M01/M04 A3053 RMK A01 T10081041  RH  079%=      5-min Rain = 0
KFR1 071750Z 03010KT M01/M04 A3053 RMK A01 T10081041  RH  079%=      5-min Rain = 0
KFR1 071751Z 02010KT M01/M04 A3053 RMK A01 T10081040  RH  079%=      5-min Rain = 0
KFR1 071752Z 02009KT M01/M04 A3053 RMK A01 T10071039  RH  079%=      5-min Rain = 0
KFR1 071753Z 03012G21KT M01/M04 A3053 RMK A01 T10071040  RH  078%=      5-min Rain = 0
KFR1 071754Z 02013G20KT M01/M04 A3053 RMK A01 T10081041  RH  078%=      5-min Rain = 0
KFR1 071755Z 04010KT M01/M04 A3053 RMK A01 T10081041  RH  078%=      5-min Rain = 0
KFR1 071756Z 02010G16KT M01/M04 A3053 RMK A01 T10081041  RH  078%=      5-min Rain = 0
KFR1 071757Z 03011KT M01/M04 A3053 RMK A01 T10081042  RH  078%=      5-min Rain = 0
KFR1 071758Z 03011KT M01/M04 A3053 RMK A01 T10081041  RH  078%=      5-min Rain = 0
KFR1 071759Z 03009KT M01/M04 A3053 RMK A01 T10081041  RH  078%=      5-min Rain = 0
KFR1 071800Z 04011KT M01/M04 A3052 RMK A01 T10081040  RH  078%=      5-min Rain = 0
KFR1 071801Z 04014KT M01/M04 A3052 RMK A01 T10071042  RH  078%=      5-min Rain = 0
KFR1 071802Z 04012KT M01/M04 A3052 RMK A01 T10081044  RH  077%=      5-min Rain = 0
KFR1 071803Z 03010KT M01/M04 A3052 RMK A01 T10081044  RH  077%=      5-min Rain = 0
KFR1 071804Z 03009KT M01/M04 A3052 RMK A01 T10081042  RH  078%=      5-min Rain = 0
KFR1 071805Z 03009KT M01/M04 A3052 RMK A01 T10071040  RH  078%=      5-min Rain = 0
KFR1 071806Z 04009KT M01/M04 A3052 RMK A01 T10071040  RH  078%=      5-min Rain = 0
KFR1 071807Z 04012KT M01/M04 A3052 RMK A01 T10061040  RH  078%=      5-min Rain = 0
KFR1 071808Z 03009KT M01/M04 A3052 RMK A01 T10061042  RH  077%=      5-min Rain = 0
KFR1 071809Z 03011G16KT M01/M04 A3052 RMK A01 T10061041  RH  078%=      5-min Rain = 0
KFR1 071810Z 02011KT M01/M04 A3052 RMK A01 T10061042  RH  077%=      5-min Rain = 0
KFR1 071811Z 02012KT M01/M04 A3052 RMK A01 T10071042  RH  077%=      5-min Rain = 0
KFR1 071812Z 02012G18KT M01/M04 A3052 RMK A01 T10061041  RH  077%=      5-min Rain = 0
KFR1 071813Z 04012KT M01/M04 A3052 RMK A01 T10061042  RH  077%=      5-min Rain = 0
KFR1 071814Z 02011KT M01/M04 A3052 RMK A01 T10071042  RH  077%=      5-min Rain = 0
KFR1 071815Z 03010G15KT M01/M04 A3052 RMK A01 T10071042  RH  077%=      5-min Rain = 0
KFR1 071816Z 03013KT M01/M04 A3052 RMK A01 T10071043  RH  077%=      5-min Rain = 0
KFR1 071817Z 03011KT M01/M04 A3052 RMK A01 T10071043  RH  077%=      5-min Rain = 0
KFR1 071818Z 04013KT M01/M04 A3051 RMK A01 T10071044  RH  076%=      5-min Rain = 0
KFR1 071819Z 03012KT M01/M04 A3051 RMK A01 T10071043  RH  077%=      5-min Rain = 0
KFR1 071820Z 02010KT M01/M04 A3051 RMK A01 T10071043  RH  077%=      5-min Rain = 0
KFR1 071821Z 02010KT M01/M04 A3051 RMK A01 T10071041  RH  078%=      5-min Rain = 0
KFR1 071822Z 03009KT M01/M04 A3051 RMK A01 T10061041  RH  078%=      5-min Rain = 0
KFR1 071823Z 02010KT M01/M04 A3051 RMK A01 T10061040  RH  078%=      5-min Rain = 0
KFR1 071824Z 01010G15KT M01/M04 A3051 RMK A01 T10071041  RH  077%=      5-min Rain = 0
KFR1 071825Z 01008G14KT M01/M04 A3051 RMK A01 T10071042  RH  077%=      5-min Rain = 0
KFR1 071826Z 01009KT M01/M04 A3051 RMK A01 T10071041  RH  078%=      5-min Rain = 0
KFR1 071827Z 01008KT M01/M04 A3051 RMK A01 T10071041  RH  078%=      5-min Rain = 0
KFR1 071828Z 03007G12KT M01/M04 A3051 RMK A01 T10061039  RH  078%=      5-min Rain = 0
KFR1 071829Z 04009KT M01/M04 A3051 RMK A01 T10051038  RH  078%=      5-min Rain = 0
KFR1 071830Z 04011KT M01/M04 A3051 RMK A01 T10051039  RH  078%=      5-min Rain = 0
KFR1 071831Z 02007G14KT M01/M04 A3051 RMK A01 T10061039  RH  078%=      5-min Rain = 0
KFR1 071832Z 03010KT M01/M04 A3051 RMK A01 T10051038  RH  078%=      5-min Rain = 0
KFR1 071833Z 02009KT M01/M04 A3051 RMK A01 T10051040  RH  078%=      5-min Rain = 0
KFR1 071834Z 02010KT M01/M04 A3051 RMK A01 T10051040  RH  077%=      5-min Rain = 0
KFR1 071835Z 01013KT M01/M04 A3051 RMK A01 T10051041  RH  077%=      5-min Rain = 0
KFR1 071836Z 03011KT M01/M04 A3051 RMK A01 T10061042  RH  076%=      5-min Rain = 0
KFR1 071837Z 03008KT M01/M04 A3051 RMK A01 T10061042  RH  077%=      5-min Rain = 0
KFR1 071838Z 02011KT M01/M04 A3051 RMK A01 T10061040  RH  077%=      5-min Rain = 0
KFR1 071839Z 02012KT M01/M04 A3051 RMK A01 T10061043  RH  076%=      5-min Rain = 0
KFR1 071840Z 02011KT M01/M04 A3051 RMK A01 T10061043  RH  076%=      5-min Rain = 0
KFR1 071841Z 02010KT M01/M04 A3051 RMK A01 T10061042  RH  076%=      5-min Rain = 0
KFR1 071842Z 02009KT M01/M04 A3051 RMK A01 T10051041  RH  077%=      5-min Rain = 0
KFR1 071843Z 02010KT M01/M04 A3051 RMK A01 T10051042  RH  076%=      5-min Rain = 0
KFR1 071844Z 03009KT M01/M04 A3051 RMK A01 T10051041  RH  077%=      5-min Rain = 0
KFR1 071845Z 02009KT M01/M04 A3051 RMK A01 T10051040  RH  077%=      5-min Rain = 0
KFR1 071846Z 02012KT M01/M04 A3051 RMK A01 T10051041  RH  077%=      5-min Rain = 0
KFR1 071847Z 02011KT M01/M04 A3051 RMK A01 T10051042  RH  076%=      5-min Rain = 0
KFR1 071848Z 03008KT M01/M04 A3051 RMK A01 T10051043  RH  076%=      5-min Rain = 0
KFR1 071849Z 04009KT M01/M04 A3051 RMK A01 T10051043  RH  076%=      5-min Rain = 0
KFR1 071850Z 02011KT M01/M04 A3051 RMK A01 T10051042  RH  076%=      5-min Rain = 0
KFR1 071851Z 03008KT M01/M04 A3051 RMK A01 T10051041  RH  077%=      5-min Rain = 0
KFR1 071852Z 03009KT M01/M04 A305 RMK A01 T10051040  RH  077%=      5-min Rain = 0
KFR1 071853Z 03008KT M00/M04 A305 RMK A01 T10041041  RH  076%=      5-min Rain = 0
KFR1 071854Z 03010KT M00/M04 A305 RMK A01 T10041040  RH  076%=      5-min Rain = 0
KFR1 071855Z 03010KT M00/M04 A305 RMK A01 T10041040  RH  076%=      5-min Rain = 0
KFR1 071856Z 02008KT M00/M04 A305 RMK A01 T10041040  RH  077%=      5-min Rain = 0
KFR1 071857Z 02009KT M00/M04 A305 RMK A01 T10031038  RH  077%=      5-min Rain = 0
KFR1 071858Z 02009KT M00/M04 A305 RMK A01 T10031038  RH  077%=      5-min Rain = 0
KFR1 071859Z 03005KT M00/M04 A305 RMK A01 T10031038  RH  077%=      5-min Rain = 0
KFR1 071900Z 03007KT M00/M04 A305 RMK A01 T10021038  RH  077%=      5-min Rain = 0
KFR1 071901Z 03008KT M00/M04 A305 RMK A01 T10021037  RH  077%=      5-min Rain = 0
KFR1 071902Z 03007KT M00/M04 A305 RMK A01 T10011035  RH  078%=      5-min Rain = 0
KFR1 071903Z 03008KT 00/03 A305 RMK A01 T00-00-34  RH  078%=      5-min Rain = 0
KFR1 071904Z 03007KT 00/04 A305 RMK A01 T00-00-35  RH  077%=      5-min Rain = 0
KFR1 071905Z 04010KT 00/04 A305 RMK A01 T00-00-36  RH  077%=      5-min Rain = 0
KFR1 071906Z 05009KT 00/04 A305 RMK A01 T00-00-38  RH  076%=      5-min Rain = 0
KFR1 071907Z 05006G11KT M00/M04 A305 RMK A01 T10011039  RH  076%=      5-min Rain = 0
KFR1 071908Z 06011KT M00/M04 A3049 RMK A01 T10011039  RH  076%=      5-min Rain = 0
KFR1 071909Z 06010KT M00/M04 A3049 RMK A01 T10021041  RH  075%=      5-min Rain = 0
KFR1 071910Z 05008KT M00/M04 A3049 RMK A01 T10021040  RH  076%=      5-min Rain = 0
KFR1 071911Z 05006KT M00/M04 A3049 RMK A01 T10021039  RH  076%=      5-min Rain = 0
KFR1 071912Z 04007KT M00/M04 A3049 RMK A01 T10011037  RH  076%=      5-min Rain = 0
KFR1 071913Z 04007KT 00/04 A3049 RMK A01 T00000-36  RH  076%=      5-min Rain = 0
KFR1 071914Z 04006KT 00/M04 A3049 RMK A01 T00011037  RH  076%=      5-min Rain = 0
KFR1 071915Z 03007KT 00/04 A3049 RMK A01 T00000-37  RH  076%=      5-min Rain = 0
KFR1 071916Z 04008KT 00/M04 A3049 RMK A01 T00011036  RH  076%=      5-min Rain = 0
KFR1 071917Z 04008KT 00/M04 A3049 RMK A01 T00011037  RH  076%=      5-min Rain = 0
KFR1 071918Z 05006KT 00/M04 A3049 RMK A01 T00011038  RH  075%=      5-min Rain = 0
KFR1 071919Z 05007KT 00/M04 A3049 RMK A01 T00011038  RH  075%=      5-min Rain = 0
KFR1 071920Z 04005KT 00/M04 A3049 RMK A01 T00011039  RH  075%=      5-min Rain = 0
KFR1 071921Z 05008KT 00/M04 A3049 RMK A01 T00011038  RH  075%=      5-min Rain = 0
KFR1 071922Z 03006KT 00/M04 A3049 RMK A01 T00011038  RH  075%=      5-min Rain = 0
KFR1 071923Z 02006KT 00/M04 A3049 RMK A01 T00021036  RH  076%=      5-min Rain = 0
KFR1 071924Z 03006KT 00/M03 A3049 RMK A01 T00031034  RH  076%=      5-min Rain = 0
KFR1 071925Z 03006KT 00/M03 A3049 RMK A01 T00041034  RH  076%=      5-min Rain = 0
KFR1 071926Z 02009KT 00/M04 A3048 RMK A01 T00041035  RH  075%=      5-min Rain = 0
KFR1 071927Z 04009KT 00/M04 A3048 RMK A01 T00031037  RH  074%=      5-min Rain = 0
KFR1 071928Z 04007KT 00/M04 A3048 RMK A01 T00031038  RH  074%=      5-min Rain = 0
KFR1 071929Z 04009KT 00/M04 A3048 RMK A01 T00031037  RH  074%=      5-min Rain = 0
KFR1 071930Z 04008KT 00/M04 A3048 RMK A01 T00031037  RH  074%=      5-min Rain = 0
KFR1 071931Z 05008KT 00/M04 A3048 RMK A01 T00041038  RH  074%=      5-min Rain = 0
KFR1 071932Z 04009KT 00/M04 A3048 RMK A01 T00031039  RH  074%=      5-min Rain = 0
KFR1 071933Z 04009KT 00/M04 A3048 RMK A01 T00031039  RH  074%=      5-min Rain = 0
KFR1 071934Z 02006KT 00/M04 A3048 RMK A01 T00031038  RH  074%=      5-min Rain = 0
KFR1 071935Z 03006KT 00/M04 A3048 RMK A01 T00041036  RH  074%=      5-min Rain = 0
KFR1 071936Z 03006KT 01/M04 A3048 RMK A01 T00051036  RH  074%=      5-min Rain = 0
KFR1 071937Z 04007KT 01/M04 A3048 RMK A01 T00051035  RH  074%=      5-min Rain = 0
KFR1 071938Z 02007KT 01/M04 A3048 RMK A01 T00051035  RH  074%=      5-min Rain = 0
KFR1 071939Z 01007KT 01/M03 A3048 RMK A01 T00061034  RH  074%=      5-min Rain = 0
KFR1 071940Z 00006KT 01/M04 A3048 RMK A01 T00051036  RH  074%=      5-min Rain = 0
KFR1 071941Z 03007KT 01/M03 A3048 RMK A01 T00061034  RH  075%=      5-min Rain = 0
KFR1 071942Z 03006KT 01/M03 A3048 RMK A01 T00061034  RH  074%=      5-min Rain = 0
KFR1 071943Z 04007KT 01/M03 A3048 RMK A01 T00071034  RH  074%=      5-min Rain = 0
KFR1 071944Z 05006KT 01/M04 A3048 RMK A01 T00061036  RH  073%=      5-min Rain = 0
KFR1 071945Z 04006G12KT 01/M04 A3048 RMK A01 T00061037  RH  073%=      5-min Rain = 0
KFR1 071946Z 03007KT 01/M04 A3048 RMK A01 T00061037  RH  073%=      5-min Rain = 0
KFR1 071947Z 03007KT 01/M04 A3048 RMK A01 T00061037  RH  073%=      5-min Rain = 0
KFR1 071948Z 02008KT 01/M04 A3048 RMK A01 T00061037  RH  073%=      5-min Rain = 0
KFR1 071949Z 02008KT 01/M04 A3048 RMK A01 T00071037  RH  072%=      5-min Rain = 0
KFR1 071950Z 02007KT 01/M04 A3047 RMK A01 T00071036  RH  073%=      5-min Rain = 0
KFR1 071951Z 02006KT 01/M04 A3047 RMK A01 T00091035  RH  073%=      5-min Rain = 0
KFR1 071952Z 03008KT 01/M04 A3047 RMK A01 T00091035  RH  072%=      5-min Rain = 0
KFR1 071953Z 03007KT 01/M04 A3047 RMK A01 T00091035  RH  072%=      5-min Rain = 0
KFR1 071954Z 03008KT 01/M04 A3047 RMK A01 T00091035  RH  072%=      5-min Rain = 0
KFR1 071955Z 02009KT 01/M04 A3047 RMK A01 T00091036  RH  072%=      5-min Rain = 0
KFR1 071956Z 02009KT 01/M04 A3047 RMK A01 T00081036  RH  072%=      5-min Rain = 0
KFR1 071957Z 02008KT 01/M04 A3047 RMK A01 T00081037  RH  072%=      5-min Rain = 0
KFR1 071958Z 02011KT 01/M04 A3047 RMK A01 T00071038  RH  072%=      5-min Rain = 0
KFR1 071959Z 02009KT 01/M04 A3047 RMK A01 T00071039  RH  071%=      5-min Rain = 0
KFR1 072000Z 02009KT 01/M04 A3047 RMK A01 T00071038  RH  072%=      5-min Rain = 0
KFR1 072001Z 01008KT 01/M04 A3047 RMK A01 T00061039  RH  072%=      5-min Rain = 0
KFR1 072002Z 02006KT 01/M04 A3047 RMK A01 T00061038  RH  073%=      5-min Rain = 0
KFR1 072003Z 03005KT 01/M04 A3047 RMK A01 T00071035  RH  073%=      5-min Rain = 0
KFR1 072004Z 04005KT 01/M04 A3047 RMK A01 T00081035  RH  073%=      5-min Rain = 0
KFR1 072005Z 03006KT 01/M03 A3047 RMK A01 T00101033  RH  073%=      5-min Rain = 0
KFR1 072006Z 03008KT 01/M03 A3047 RMK A01 T00111034  RH  072%=      5-min Rain = 0
KFR1 072007Z 03006KT 01/M04 A3047 RMK A01 T00091039  RH  070%=      5-min Rain = 0
KFR1 072008Z 05007KT 01/M04 A3047 RMK A01 T00091038  RH  071%=      5-min Rain = 0
KFR1 072009Z 04008KT 01/M04 A3047 RMK A01 T00091038  RH  071%=      5-min Rain = 0
KFR1 072010Z 03008KT 01/M04 A3047 RMK A01 T00081038  RH  071%=      5-min Rain = 0
KFR1 072011Z 03008KT 01/M04 A3047 RMK A01 T00081038  RH  071%=      5-min Rain = 0
KFR1 072012Z 03007KT 01/M04 A3047 RMK A01 T00081038  RH  071%=      5-min Rain = 0
KFR1 072013Z 02007KT 01/M04 A3047 RMK A01 T00081037  RH  072%=      5-min Rain = 0
KFR1 072014Z 03007KT 01/M04 A3047 RMK A01 T00081036  RH  072%=      5-min Rain = 0
KFR1 072015Z 04008KT 01/M04 A3047 RMK A01 T00081036  RH  072%=      5-min Rain = 0
KFR1 072016Z 05008KT 01/M04 A3047 RMK A01 T00091037  RH  071%=      5-min Rain = 0
KFR1 072017Z 05007KT 01/M04 A3047 RMK A01 T00091038  RH  071%=      5-min Rain = 0
KFR1 072018Z 04009KT 01/M04 A3046 RMK A01 T00081039  RH  071%=      5-min Rain = 0
KFR1 072019Z 03007KT 01/M04 A3047 RMK A01 T00081039  RH  071%=      5-min Rain = 0
KFR1 072020Z 05008KT 01/M04 A3046 RMK A01 T00081039  RH  071%=      5-min Rain = 0
KFR1 072021Z 04008KT 01/M04 A3046 RMK A01 T00071039  RH  071%=      5-min Rain = 0
KFR1 072022Z 04007KT 01/M04 A3047 RMK A01 T00071040  RH  071%=      5-min Rain = 0
KFR1 072023Z 04008KT 01/M04 A3047 RMK A01 T00081039  RH  071%=      5-min Rain = 0
KFR1 072024Z 04008KT 01/M04 A3047 RMK A01 T00081040  RH  070%=      5-min Rain = 0
KFR1 072025Z 04008KT 01/M04 A3047 RMK A01 T00081039  RH  071%=      5-min Rain = 0
KFR1 072026Z 04008KT 01/M04 A3047 RMK A01 T00081039  RH  071%=      5-min Rain = 0
KFR1 072027Z 05007KT 01/M04 A3047 RMK A01 T00081039  RH  071%=      5-min Rain = 0
KFR1 072028Z 04005KT 01/M04 A3047 RMK A01 T00081037  RH  072%=      5-min Rain = 0
KFR1 072029Z 04006KT 01/M04 A3047 RMK A01 T00091037  RH  072%=      5-min Rain = 0
KFR1 072030Z 04006KT 01/M04 A3047 RMK A01 T00091037  RH  071%=      5-min Rain = 0
KFR1 072031Z 03005KT 01/M04 A3047 RMK A01 T00091038  RH  071%=      5-min Rain = 0
KFR1 072032Z 05005KT 01/M04 A3047 RMK A01 T00091036  RH  072%=      5-min Rain = 0
KFR1 072033Z 04004KT 01/M04 A3047 RMK A01 T00091037  RH  071%=      5-min Rain = 0
KFR1 072034Z 04004KT 01/M04 A3047 RMK A01 T00091036  RH  072%=      5-min Rain = 0
KFR1 072035Z 04003KT 01/M04 A3047 RMK A01 T00101035  RH  072%=      5-min Rain = 0
KFR1 072036Z 02004KT 01/M03 A3047 RMK A01 T00111034  RH  072%=      5-min Rain = 0
KFR1 072037Z 02006KT 01/M03 A3047 RMK A01 T00131033  RH  071%=      5-min Rain = 0
KFR1 072038Z 01008KT 01/M04 A3047 RMK A01 T00131036  RH  070%=      5-min Rain = 0
KFR1 072039Z 02008KT 01/M04 A3047 RMK A01 T00111038  RH  070%=      5-min Rain = 0
KFR1 072040Z 03006KT 01/M04 A3047 RMK A01 T00101038  RH  070%=      5-min Rain = 0
KFR1 072041Z 02007KT 01/M04 A3047 RMK A01 T00101036  RH  071%=      5-min Rain = 0
KFR1 072042Z 01007KT 01/M04 A3047 RMK A01 T00101037  RH  071%=      5-min Rain = 0
KFR1 072043Z 01005KT 01/M04 A3047 RMK A01 T00091038  RH  071%=      5-min Rain = 0
KFR1 072044Z 03005KT 01/M04 A3047 RMK A01 T00081037  RH  072%=      5-min Rain = 0
KFR1 072045Z 04005KT 01/M04 A3047 RMK A01 T00091036  RH  072%=      5-min Rain = 0
KFR1 072046Z 04005KT 01/M04 A3046 RMK A01 T00091037  RH  071%=      5-min Rain = 0
KFR1 072047Z 04007KT 01/M04 A3046 RMK A01 T00101037  RH  071%=      5-min Rain = 0
KFR1 072048Z 05006KT 01/M04 A3046 RMK A01 T00111037  RH  070%=      5-min Rain = 0
KFR1 072049Z 04006KT 01/M04 A3046 RMK A01 T00111038  RH  070%=      5-min Rain = 0
KFR1 072050Z 05005KT 01/M04 A3046 RMK A01 T00111039  RH  070%=      5-min Rain = 0
KFR1 072051Z 02005G10KT 01/M04 A3046 RMK A01 T00101037  RH  071%=      5-min Rain = 0
KFR1 072052Z 02008KT 01/M04 A3046 RMK A01 T00111036  RH  070%=      5-min Rain = 0
KFR1 072053Z 02007KT 01/M04 A3046 RMK A01 T00101038  RH  070%=      5-min Rain = 0
KFR1 072054Z 03005KT 01/M04 A3046 RMK A01 T00101037  RH  071%=      5-min Rain = 0
KFR1 072055Z 02006KT 01/M04 A3046 RMK A01 T00111035  RH  071%=      5-min Rain = 0
KFR1 072056Z 01006KT 01/M04 A3046 RMK A01 T00111036  RH  071%=      5-min Rain = 0
KFR1 072057Z 01006KT 01/M04 A3046 RMK A01 T00111035  RH  071%=      5-min Rain = 0
KFR1 072058Z 01007KT 01/M04 A3046 RMK A01 T00121035  RH  071%=      5-min Rain = 0
KFR1 072059Z 02005KT 01/M04 A3046 RMK A01 T00121035  RH  071%=      5-min Rain = 0
KFR1 072100Z 05005KT 01/M03 A3046 RMK A01 T00121033  RH  072%=      5-min Rain = 0
KFR1 072101Z 05006KT 01/M04 A3046 RMK A01 T00121035  RH  071%=      5-min Rain = 0
KFR1 072102Z 06006KT 01/M04 A3046 RMK A01 T00111037  RH  070%=      5-min Rain = 0
KFR1 072103Z 06006KT 01/M04 A3046 RMK A01 T00101037  RH  071%=      5-min Rain = 0
KFR1 072104Z 07005KT 01/M04 A3046 RMK A01 T00101036  RH  071%=      5-min Rain = 0
KFR1 072105Z 07004KT 01/M04 A3046 RMK A01 T00101035  RH  072%=      5-min Rain = 0
KFR1 072106Z 05006KT 01/M03 A3046 RMK A01 T00121033  RH  072%=      5-min Rain = 0
KFR1 072107Z 03006KT 01/M04 A3046 RMK A01 T00121035  RH  071%=      5-min Rain = 0
KFR1 072108Z 03004KT 01/M04 A3046 RMK A01 T00131036  RH  070%=      5-min Rain = 0
KFR1 072109Z 05004KT 01/M03 A3046 RMK A01 T00131034  RH  071%=      5-min Rain = 0
KFR1 072110Z 04004KT 02/M03 A3046 RMK A01 T00151033  RH  070%=      5-min Rain = 0
KFR1 072111Z 05005KT 02/M03 A3046 RMK A01 T00161032  RH  070%=      5-min Rain = 0
KFR1 072112Z 06008KT 02/M03 A3046 RMK A01 T00161034  RH  069%=      5-min Rain = 0
KFR1 072113Z 05007KT 01/M04 A3046 RMK A01 T00141037  RH  069%=      5-min Rain = 0
KFR1 072114Z 05007KT 01/M04 A3046 RMK A01 T00131038  RH  069%=      5-min Rain = 0
KFR1 072115Z 03007KT 01/M04 A3046 RMK A01 T00131037  RH  069%=      5-min Rain = 0
KFR1 072116Z 04004KT 01/M04 A3046 RMK A01 T00131037  RH  069%=      5-min Rain = 0
KFR1 072117Z 05005KT 02/M03 A3046 RMK A01 T00151033  RH  070%=      5-min Rain = 0
KFR1 072118Z 04006KT 02/M04 A3046 RMK A01 T00161035  RH  069%=      5-min Rain = 0
KFR1 072119Z 04007KT 02/M04 A3046 RMK A01 T00161037  RH  068%=      5-min Rain = 0
KFR1 072120Z 04006KT 02/M04 A3046 RMK A01 T00161037  RH  068%=      5-min Rain = 0
KFR1 072121Z 01005KT 02/M04 A3046 RMK A01 T00151038  RH  068%=      5-min Rain = 0
KFR1 072122Z 02005KT 02/M04 A3046 RMK A01 T00151038  RH  068%=      5-min Rain = 0
KFR1 072123Z 04005KT 02/M04 A3046 RMK A01 T00151038  RH  068%=      5-min Rain = 0
KFR1 072124Z 03003KT 01/M04 A3046 RMK A01 T00141038  RH  068%=      5-min Rain = 0
KFR1 072125Z 02003KT 01/M04 A3046 RMK A01 T00141038  RH  068%=      5-min Rain = 0
KFR1 072126Z 03003KT 01/M04 A3046 RMK A01 T00141038  RH  068%=      5-min Rain = 0
KFR1 072127Z 05005KT 01/M04 A3046 RMK A01 T00141038  RH  068%=      5-min Rain = 0
KFR1 072128Z 06005KT 01/M04 A3046 RMK A01 T00141038  RH  068%=      5-min Rain = 0
KFR1 072129Z 05006KT 02/M04 A3046 RMK A01 T00151038  RH  068%=      5-min Rain = 0
KFR1 072130Z 05006KT 02/M04 A3046 RMK A01 T00151038  RH  068%=      5-min Rain = 0
KFR1 072131Z 05006KT 01/M04 A3046 RMK A01 T00141038  RH  068%=      5-min Rain = 0
KFR1 072132Z 04005KT 01/M04 A3046 RMK A01 T00141039  RH  068%=      5-min Rain = 0
KFR1 072133Z 04005KT 01/M04 A3046 RMK A01 T00141038  RH  069%=      5-min Rain = 0
KFR1 072134Z 04005KT 01/M04 A3046 RMK A01 T00141037  RH  069%=      5-min Rain = 0
KFR1 072135Z 05005KT 01/M04 A3046 RMK A01 T00141037  RH  069%=      5-min Rain = 0
KFR1 072136Z 05006KT 01/M04 A3046 RMK A01 T00141037  RH  069%=      5-min Rain = 0
KFR1 072137Z 04006KT 01/M04 A3046 RMK A01 T00141038  RH  069%=      5-min Rain = 0
KFR1 072138Z 02005KT 01/M04 A3046 RMK A01 T00141037  RH  069%=      5-min Rain = 0
KFR1 072139Z 02005KT 02/M04 A3046 RMK A01 T00151036  RH  069%=      5-min Rain = 0
KFR1 072140Z 03003KT 02/M04 A3046 RMK A01 T00151037  RH  068%=      5-min Rain = 0
KFR1 072141Z 04004KT 01/M04 A3046 RMK A01 T00141037  RH  069%=      5-min Rain = 0
KFR1 072142Z 04004KT 01/M04 A3046 RMK A01 T00141037  RH  069%=      5-min Rain = 0
KFR1 072143Z 06004KT 01/M04 A3046 RMK A01 T00141037  RH  069%=      5-min Rain = 0
KFR1 072144Z 05005KT 01/M04 A3046 RMK A01 T00141036  RH  069%=      5-min Rain = 0
KFR1 072145Z 04005KT 01/M04 A3046 RMK A01 T00141036  RH  069%=      5-min Rain = 0
KFR1 072146Z 03004KT 02/M03 A3046 RMK A01 T00151034  RH  070%=      5-min Rain = 0
KFR1 072147Z 04003KT 02/M03 A3046 RMK A01 T00171033  RH  070%=      5-min Rain = 0
KFR1 072148Z 02003KT 02/M03 A3046 RMK A01 T00171032  RH  069%=      5-min Rain = 0
KFR1 072149Z 05003KT 02/M03 A3046 RMK A01 T00171033  RH  069%=      5-min Rain = 0
KFR1 072150Z 06005KT 02/M04 A3046 RMK A01 T00171035  RH  068%=      5-min Rain = 0
KFR1 072151Z 05006KT 02/M04 A3045 RMK A01 T00161037  RH  068%=      5-min Rain = 0
KFR1 072152Z 04006KT 02/M04 A3045 RMK A01 T00151035  RH  069%=      5-min Rain = 0
KFR1 072153Z 05004KT 02/M04 A3045 RMK A01 T00151036  RH  069%=      5-min Rain = 0
KFR1 072154Z 04004KT 02/M04 A3045 RMK A01 T00151036  RH  069%=      5-min Rain = 0
KFR1 072155Z 04006KT 02/M04 A3045 RMK A01 T00151035  RH  069%=      5-min Rain = 0
KFR1 072156Z 04006KT 02/M03 A3045 RMK A01 T00151034  RH  069%=      5-min Rain = 0
KFR1 072157Z 04005KT 02/M03 A3046 RMK A01 T00151034  RH  069%=      5-min Rain = 0
KFR1 072158Z 04006KT 02/M04 A3046 RMK A01 T00151035  RH  069%=      5-min Rain = 0
KFR1 072159Z 05005KT 02/M04 A3046 RMK A01 T00161035  RH  069%=      5-min Rain = 0
KFR1 072200Z 05005KT 02/M04 A3046 RMK A01 T00151036  RH  069%=      5-min Rain = 0
KFR1 072201Z 05006KT 02/M04 A3046 RMK A01 T00151035  RH  069%=      5-min Rain = 0
KFR1 072202Z 05005KT 02/M04 A3046 RMK A01 T00151036  RH  069%=      5-min Rain = 0
KFR1 072203Z 05006KT 02/M04 A3046 RMK A01 T00151035  RH  069%=      5-min Rain = 0
KFR1 072204Z 04006KT 01/M04 A3046 RMK A01 T00141035  RH  070%=      5-min Rain = 0
KFR1 072205Z 04004KT 01/M04 A3046 RMK A01 T00141035  RH  069%=      5-min Rain = 0
KFR1 072206Z 02003KT 01/M04 A3046 RMK A01 T00141035  RH  070%=      5-min Rain = 0
KFR1 072207Z 36003KT 02/M03 A3046 RMK A01 T00151034  RH  070%=      5-min Rain = 0
KFR1 072208Z 01003KT 02/M03 A3046 RMK A01 T00151034  RH  070%=      5-min Rain = 0
KFR1 072209Z 03002KT 02/M03 A3046 RMK A01 T00151034  RH  070%=      5-min Rain = 0
KFR1 072210Z 03002KT 02/M03 A3046 RMK A01 T00151034  RH  070%=      5-min Rain = 0
KFR1 072211Z 04002KT 02/M03 A3046 RMK A01 T00161033  RH  070%=      5-min Rain = 0
KFR1 072212Z 04003KT 02/M03 A3046 RMK A01 T00161032  RH  070%=      5-min Rain = 0
KFR1 072213Z 04004KT 02/M03 A3046 RMK A01 T00161033  RH  070%=      5-min Rain = 0
KFR1 072214Z 04003KT 02/M03 A3046 RMK A01 T00161034  RH  069%=      5-min Rain = 0
KFR1 072215Z 04003KT 02/M03 A3046 RMK A01 T00161034  RH  070%=      5-min Rain = 0
KFR1 072216Z 04004KT 02/M03 A3046 RMK A01 T00161032  RH  070%=      5-min Rain = 0
KFR1 072217Z 03003KT 02/M03 A3046 RMK A01 T00171031  RH  070%=      5-min Rain = 0
KFR1 072218Z 04004KT 02/M03 A3046 RMK A01 T00171031  RH  070%=      5-min Rain = 0
KFR1 072219Z 03002KT 02/M03 A3046 RMK A01 T00171033  RH  069%=      5-min Rain = 0
KFR1 072220Z 03003KT 02/M03 A3046 RMK A01 T00181031  RH  070%=      5-min Rain = 0
KFR1 072221Z 03002KT 02/M03 A3046 RMK A01 T00181030  RH  070%=      5-min Rain = 0
KFR1 072222Z 04004KT 02/M03 A3046 RMK A01 T00181031  RH  070%=      5-min Rain = 0
KFR1 072223Z 05004KT 02/M03 A3046 RMK A01 T00181031  RH  070%=      5-min Rain = 0
KFR1 072224Z 05003KT 02/M03 A3046 RMK A01 T00181031  RH  070%=      5-min Rain = 0
KFR1 072225Z 05003KT 02/M03 A3046 RMK A01 T00181030  RH  070%=      5-min Rain = 0
KFR1 072226Z 06003KT 02/M03 A3046 RMK A01 T00181031  RH  070%=      5-min Rain = 0
KFR1 072227Z 05003KT 02/M03 A3046 RMK A01 T00181031  RH  070%=      5-min Rain = 0
KFR1 072228Z 04003KT 02/M03 A3046 RMK A01 T00181032  RH  070%=      5-min Rain = 0
KFR1 072229Z 05002KT 02/M03 A3046 RMK A01 T00181031  RH  070%=      5-min Rain = 0
KFR1 072230Z 03002KT 02/M03 A3046 RMK A01 T00181031  RH  070%=      5-min Rain = 0
KFR1 072231Z 02003KT 02/M03 A3046 RMK A01 T00181030  RH  070%=      5-min Rain = 0
KFR1 072232Z 01003KT 02/M03 A3046 RMK A01 T00191030  RH  070%=      5-min Rain = 0
KFR1 072233Z 05003KT 02/M03 A3046 RMK A01 T00191031  RH  070%=      5-min Rain = 0
KFR1 072234Z 04004KT 02/M03 A3046 RMK A01 T00191030  RH  070%=      5-min Rain = 0
KFR1 072235Z 04005KT 02/M03 A3046 RMK A01 T00191030  RH  070%=      5-min Rain = 0
KFR1 072236Z 06004KT 02/M03 A3046 RMK A01 T00201030  RH  070%=      5-min Rain = 0
KFR1 072237Z 06004KT 02/M03 A3046 RMK A01 T00191031  RH  069%=      5-min Rain = 0
KFR1 072238Z 04004KT 02/M03 A3046 RMK A01 T00181032  RH  069%=      5-min Rain = 0
KFR1 072239Z 04003KT 02/M03 A3046 RMK A01 T00181032  RH  070%=      5-min Rain = 0
KFR1 072240Z 05003KT 02/M03 A3046 RMK A01 T00181030  RH  070%=      5-min Rain = 0
KFR1 072241Z 05002KT 02/M03 A3046 RMK A01 T00181030  RH  070%=      5-min Rain = 0
KFR1 072242Z 06002KT 02/M03 A3046 RMK A01 T00191030  RH  070%=      5-min Rain = 0
KFR1 072243Z 07003KT 02/M03 A3046 RMK A01 T00181030  RH  070%=      5-min Rain = 0
KFR1 072244Z 06003KT 02/M03 A3046 RMK A01 T00191030  RH  070%=      5-min Rain = 0
KFR1 072245Z 06002KT 02/M03 A3046 RMK A01 T00191030  RH  070%=      5-min Rain = 0
KFR1 072246Z 07002KT 02/M03 A3046 RMK A01 T00191029  RH  070%=      5-min Rain = 0
KFR1 072247Z 07003KT 02/M03 A3046 RMK A01 T00191029  RH  070%=      5-min Rain = 0
KFR1 072248Z 07003KT 02/M03 A3046 RMK A01 T00181030  RH  070%=      5-min Rain = 0
KFR1 072249Z 06002KT 02/M03 A3046 RMK A01 T00191030  RH  070%=      5-min Rain = 0
KFR1 072250Z 06003KT 02/M03 A3046 RMK A01 T00191030  RH  070%=      5-min Rain = 0
KFR1 072251Z 05002KT 02/M03 A3046 RMK A01 T00181030  RH  070%=      5-min Rain = 0
KFR1 072252Z 07002KT 02/M03 A3046 RMK A01 T00181030  RH  070%=      5-min Rain = 0
KFR1 072253Z 07002KT 02/M03 A3046 RMK A01 T00181029  RH  071%=      5-min Rain = 0
KFR1 072254Z 08002KT 02/M03 A3046 RMK A01 T00191029  RH  070%=      5-min Rain = 0
KFR1 072255Z 06002KT 02/M03 A3046 RMK A01 T00191029  RH  070%=      5-min Rain = 0
KFR1 072256Z 06002KT 02/M03 A3046 RMK A01 T00191029  RH  070%=      5-min Rain = 0
KFR1 072257Z 07002KT 02/M03 A3046 RMK A01 T00191030  RH  070%=      5-min Rain = 0
KFR1 072258Z 06002KT 02/M03 A3046 RMK A01 T00191030  RH  070%=      5-min Rain = 0
KFR1 072259Z 07002KT 02/M03 A3046 RMK A01 T00191031  RH  070%=      5-min Rain = 0
KFR1 072300Z 08002KT 02/M03 A3046 RMK A01 T00191031  RH  069%=      5-min Rain = 0
KFR1 072301Z 09001KT 02/M03 A3046 RMK A01 T00191030  RH  070%=      5-min Rain = 0
KFR1 072302Z 09001KT 02/M03 A3046 RMK A01 T00191030  RH  070%=      5-min Rain = 0
KFR1 072303Z 09001KT 02/M03 A3046 RMK A01 T00191029  RH  070%=      5-min Rain = 0
KFR1 072304Z 09000KT 02/M03 A3046 RMK A01 T00191030  RH  070%=      5-min Rain = 0
KFR1 072305Z 07002KT 02/M03 A3046 RMK A01 T00191030  RH  070%=      5-min Rain = 0
KFR1 072306Z 08001KT 02/M03 A3046 RMK A01 T00201028  RH  070%=      5-min Rain = 0
KFR1 072307Z 07001KT 02/M03 A3046 RMK A01 T00201027  RH  071%=      5-min Rain = 0
KFR1 072308Z 07001KT 02/M03 A3046 RMK A01 T00201029  RH  070%=      5-min Rain = 0
KFR1 072309Z 09001KT 02/M03 A3046 RMK A01 T00201030  RH  069%=      5-min Rain = 0
KFR1 072310Z 09001KT 02/M03 A3046 RMK A01 T00201029  RH  070%=      5-min Rain = 0
KFR1 072311Z 08002KT 02/M03 A3046 RMK A01 T00201029  RH  070%=      5-min Rain = 0
KFR1 072312Z 06002KT 02/M03 A3046 RMK A01 T00211029  RH  070%=      5-min Rain = 0
KFR1 072313Z 05002KT 02/M03 A3046 RMK A01 T00211028  RH  070%=      5-min Rain = 0
KFR1 072314Z 05002KT 02/M03 A3046 RMK A01 T00211029  RH  070%=      5-min Rain = 0
KFR1 072315Z 05002KT 02/M03 A3046 RMK A01 T00211028  RH  070%=      5-min Rain = 0
KFR1 072316Z 05002KT 02/M03 A3046 RMK A01 T00211029  RH  070%=      5-min Rain = 0
KFR1 072317Z 05002KT 02/M03 A3046 RMK A01 T00211029  RH  070%=      5-min Rain = 0
KFR1 072318Z 05003KT 02/M03 A3046 RMK A01 T00211029  RH  069%=      5-min Rain = 0
KFR1 072319Z 06003KT 02/M03 A3046 RMK A01 T00211028  RH  070%=      5-min Rain = 0
KFR1 072320Z 07003KT 02/M03 A3046 RMK A01 T00211029  RH  069%=      5-min Rain = 0
KFR1 072321Z 07002KT 02/M03 A3046 RMK A01 T00211029  RH  070%=      5-min Rain = 0
KFR1 072322Z 07002KT 02/M03 A3046 RMK A01 T00211028  RH  070%=      5-min Rain = 0
KFR1 072323Z 06002KT 02/M03 A3046 RMK A01 T00211027  RH  071%=      5-min Rain = 0
KFR1 072324Z 06002KT 02/M03 A3046 RMK A01 T00211027  RH  070%=      5-min Rain = 0
KFR1 072325Z 07002KT 02/M03 A3046 RMK A01 T00211027  RH  070%=      5-min Rain = 0
KFR1 072326Z 06002KT 02/M03 A3046 RMK A01 T00211028  RH  070%=      5-min Rain = 0
KFR1 072327Z 05002KT 02/M03 A3046 RMK A01 T00211028  RH  070%=      5-min Rain = 0
KFR1 072328Z 05002KT 02/M03 A3046 RMK A01 T00211028  RH  070%=      5-min Rain = 0
KFR1 072329Z 07003KT 02/M03 A3046 RMK A01 T00211029  RH  069%=      5-min Rain = 0
KFR1 072330Z 08002KT 02/M03 A3046 RMK A01 T00211029  RH  069%=      5-min Rain = 0
KFR1 072331Z 08002KT 02/M03 A3046 RMK A01 T00211029  RH  069%=      5-min Rain = 0
KFR1 072332Z 07002KT 02/M03 A3046 RMK A01 T00211029  RH  069%=      5-min Rain = 0
KFR1 072333Z 07002KT 02/M03 A3046 RMK A01 T00211028  RH  070%=      5-min Rain = 0
KFR1 072334Z 06002KT 02/M03 A3046 RMK A01 T00211028  RH  070%=      5-min Rain = 0
KFR1 072335Z 07002KT 02/M03 A3046 RMK A01 T00211028  RH  070%=      5-min Rain = 0
KFR1 072336Z 08001KT 02/M03 A3046 RMK A01 T00211028  RH  070%=      5-min Rain = 0
KFR1 072337Z 07001KT 02/M03 A3046 RMK A01 T00211029  RH  070%=      5-min Rain = 0
KFR1 072338Z 07001KT 02/M03 A3046 RMK A01 T00211029  RH  070%=      5-min Rain = 0
KFR1 072339Z 08002KT 02/M03 A3046 RMK A01 T00211029  RH  070%=      5-min Rain = 0
KFR1 072340Z 09001KT 02/M03 A3046 RMK A01 T00211029  RH  070%=      5-min Rain = 0
KFR1 072341Z 09001KT 02/M03 A3046 RMK A01 T00211029  RH  069%=      5-min Rain = 0
KFR1 072342Z 10002KT 02/M03 A3046 RMK A01 T00211029  RH  070%=      5-min Rain = 0
KFR1 072343Z 09002KT 02/M03 A3046 RMK A01 T00211028  RH  070%=      5-min Rain = 0
KFR1 072344Z 08001KT 02/M03 A3046 RMK A01 T00221027  RH  070%=      5-min Rain = 0
KFR1 072345Z 09001KT 02/M03 A3046 RMK A01 T00221027  RH  070%=      5-min Rain = 0
KFR1 072346Z 10001KT 02/M03 A3046 RMK A01 T00221028  RH  070%=      5-min Rain = 0
KFR1 072347Z 08001KT 02/M03 A3046 RMK A01 T00221027  RH  070%=      5-min Rain = 0
KFR1 072348Z 08001KT 02/M03 A3046 RMK A01 T00221027  RH  070%=      5-min Rain = 0
KFR1 072349Z 10002KT 02/M03 A3046 RMK A01 T00221026  RH  070%=      5-min Rain = 0
KFR1 072350Z 11002KT 02/M03 A3046 RMK A01 T00221027  RH  070%=      5-min Rain = 0
KFR1 072351Z 11002KT 02/M03 A3046 RMK A01 T00221027  RH  070%=      5-min Rain = 0
KFR1 072352Z 11001KT 02/M03 A3046 RMK A01 T00221028  RH  070%=      5-min Rain = 0
KFR1 072353Z 10002KT 02/M03 A3046 RMK A01 T00221027  RH  070%=      5-min Rain = 0
KFR1 072354Z 11002KT 02/M03 A3046 RMK A01 T00221027  RH  070%=      5-min Rain = 0
KFR1 072355Z 11002KT 02/M03 A3046 RMK A01 T00221026  RH  070%=      5-min Rain = 0
KFR1 072356Z 10002KT 02/M03 A3046 RMK A01 T00231027  RH  070%=      5-min Rain = 0
KFR1 072357Z 09002KT 02/M03 A3046 RMK A01 T00231028  RH  069%=      5-min Rain = 0
KFR1 072358Z 10002KT 02/M03 A3046 RMK A01 T00231026  RH  070%=      5-min Rain = 0
KFR1 072359Z 11002KT 02/M03 A3046 RMK A01 T00231026  RH  070%=      5-min Rain = 0
KFR1 080000Z 11002KT 02/M03 A3046 RMK A01 T00231027  RH  070%=      5-min Rain = 0
KFR1 080001Z 11002KT 02/M03 A3046 RMK A01 T00221028  RH  069%=      5-min Rain = 0
KFR1 080002Z 11002KT 02/M03 A3046 RMK A01 T00221027  RH  070%=      5-min Rain = 0
KFR1 080003Z 11002KT 02/M03 A3046 RMK A01 T00221027  RH  070%=      5-min Rain = 0
KFR1 080004Z 11002KT 02/M03 A3046 RMK A01 T00221028  RH  070%=      5-min Rain = 0
KFR1 080005Z 10002KT 02/M03 A3046 RMK A01 T00221028  RH  069%=      5-min Rain = 0
KFR1 080006Z 11002KT 02/M03 A3046 RMK A01 T00221027  RH  070%=      5-min Rain = 0
KFR1 080007Z 10002KT 02/M03 A3046 RMK A01 T00221028  RH  070%=      5-min Rain = 0
KFR1 080008Z 10003KT 02/M03 A3046 RMK A01 T00221028  RH  070%=      5-min Rain = 0
KFR1 080009Z 10002KT 02/M03 A3046 RMK A01 T00221027  RH  070%=      5-min Rain = 0
KFR1 080010Z 11003KT 02/M03 A3046 RMK A01 T00221027  RH  070%=      5-min Rain = 0
KFR1 080011Z 11002KT 02/M03 A3046 RMK A01 T00221027  RH  070%=      5-min Rain = 0
KFR1 080012Z 11002KT 02/M03 A3046 RMK A01 T00221026  RH  071%=      5-min Rain = 0
KFR1 080013Z 11003KT 02/M03 A3046 RMK A01 T00221027  RH  070%=      5-min Rain = 0
KFR1 080014Z 11003KT 02/M03 A3046 RMK A01 T00221027  RH  070%=      5-min Rain = 0
KFR1 080015Z 12002KT 02/M03 A3046 RMK A01 T00221027  RH  070%=      5-min Rain = 0
KFR1 080016Z 13002KT 02/M03 A3046 RMK A01 T00221027  RH  070%=      5-min Rain = 0
KFR1 080017Z 12002KT 02/M03 A3046 RMK A01 T00221028  RH  070%=      5-min Rain = 0
KFR1 080018Z 13002KT 02/M03 A3046 RMK A01 T00221028  RH  070%=      5-min Rain = 0
KFR1 080019Z 12002KT 02/M03 A3046 RMK A01 T00221028  RH  070%=      5-min Rain = 0
KFR1 080020Z 13002KT 02/M03 A3046 RMK A01 T00221027  RH  070%=      5-min Rain = 0
KFR1 080021Z 15002KT 02/M03 A3046 RMK A01 T00221028  RH  070%=      5-min Rain = 0
KFR1 080022Z 14002KT 02/M03 A3046 RMK A01 T00221027  RH  070%=      5-min Rain = 0
KFR1 080023Z 13002KT 02/M03 A3046 RMK A01 T00221028  RH  070%=      5-min Rain = 0
KFR1 080024Z 14002KT 02/M03 A3046 RMK A01 T00221028  RH  069%=      5-min Rain = 0
KFR1 080025Z 14002KT 02/M03 A3046 RMK A01 T00221029  RH  069%=      5-min Rain = 0
KFR1 080026Z 15002KT 02/M03 A3046 RMK A01 T00221028  RH  069%=      5-min Rain = 0
KFR1 080027Z 15002KT 02/M03 A3046 RMK A01 T00221028  RH  069%=      5-min Rain = 0
KFR1 080028Z 15003KT 02/M03 A3046 RMK A01 T00221028  RH  070%=      5-min Rain = 0
KFR1 080029Z 14003KT 02/M03 A3046 RMK A01 T00221028  RH  069%=      5-min Rain = 0
KFR1 080030Z 15002KT 02/M03 A3046 RMK A01 T00221028  RH  069%=      5-min Rain = 0
KFR1 080031Z 16002KT 02/M03 A3046 RMK A01 T00221027  RH  070%=      5-min Rain = 0
KFR1 080032Z 16002KT 02/M03 A3046 RMK A01 T00231026  RH  070%=      5-min Rain = 0
KFR1 080033Z 16003KT 02/M03 A3046 RMK A01 T00231026  RH  070%=      5-min Rain = 0
KFR1 080034Z 16003KT 02/M03 A3046 RMK A01 T00231026  RH  070%=      5-min Rain = 0
KFR1 080035Z 16002KT 02/M03 A3046 RMK A01 T00231027  RH  070%=      5-min Rain = 0
KFR1 080036Z 17002KT 02/M03 A3046 RMK A01 T00231026  RH  070%=      5-min Rain = 0
KFR1 080037Z 16002KT 02/M03 A3046 RMK A01 T00231026  RH  070%=      5-min Rain = 0
KFR1 080038Z 17003KT 02/M03 A3046 RMK A01 T00231026  RH  070%=      5-min Rain = 0
KFR1 080039Z 17003KT 02/M03 A3046 RMK A01 T00231027  RH  070%=      5-min Rain = 0
KFR1 080040Z 17003KT 02/M03 A3046 RMK A01 T00231027  RH  070%=      5-min Rain = 0
KFR1 080041Z 17003KT 02/M03 A3046 RMK A01 T00231027  RH  070%=      5-min Rain = 0
KFR1 080042Z 17003KT 02/M03 A3046 RMK A01 T00231027  RH  069%=      5-min Rain = 0
KFR1 080043Z 17003KT 02/M03 A3046 RMK A01 T00231027  RH  070%=      5-min Rain = 0
KFR1 080044Z 17003KT 02/M03 A3046 RMK A01 T00231027  RH  070%=      5-min Rain = 0
KFR1 080045Z 17002KT 02/M03 A3046 RMK A01 T00231026  RH  070%=      5-min Rain = 0
KFR1 080046Z 17002KT 02/M03 A3046 RMK A01 T00231025  RH  071%=      5-min Rain = 0
KFR1 080047Z 18003KT 02/M03 A3046 RMK A01 T00231026  RH  070%=      5-min Rain = 0
KFR1 080048Z 18003KT 02/M03 A3046 RMK A01 T00231026  RH  070%=      5-min Rain = 0
KFR1 080049Z 18003KT 02/M03 A3046 RMK A01 T00231026  RH  070%=      5-min Rain = 0
KFR1 080050Z 18002KT 02/M03 A3046 RMK A01 T00231026  RH  070%=      5-min Rain = 0
KFR1 080051Z 17003KT 02/M03 A3046 RMK A01 T00231026  RH  070%=      5-min Rain = 0
KFR1 080052Z 17003KT 02/M03 A3046 RMK A01 T00231026  RH  070%=      5-min Rain = 0
KFR1 080053Z 16003KT 02/M03 A3046 RMK A01 T00231026  RH  070%=      5-min Rain = 0
KFR1 080054Z 16003KT 02/M03 A3046 RMK A01 T00231026  RH  070%=      5-min Rain = 0
KFR1 080055Z 16003KT 02/M03 A3046 RMK A01 T00231026  RH  070%=      5-min Rain = 0
KFR1 080056Z 16003KT 02/M03 A3046 RMK A01 T00231027  RH  069%=      5-min Rain = 0
KFR1 080057Z 16003KT 02/M03 A3046 RMK A01 T00231028  RH  069%=      5-min Rain = 0
KFR1 080058Z 16003KT 02/M03 A3046 RMK A01 T00231027  RH  070%=      5-min Rain = 0
KFR1 080059Z 16003KT 02/M03 A3046 RMK A01 T00231027  RH  070%=      5-min Rain = 0
KFR1 080100Z 17003KT 02/M03 A3046 RMK A01 T00231027  RH  070%=      5-min Rain = 0
KFR1 080101Z 17003KT 02/M03 A3046 RMK A01 T00231027  RH  070%=      5-min Rain = 0
KFR1 080102Z 17003KT 02/M03 A3046 RMK A01 T00231026  RH  070%=      5-min Rain = 0
KFR1 080103Z 17003KT 02/M03 A3046 RMK A01 T00231027  RH  070%=      5-min Rain = 0
KFR1 080104Z 17003KT 02/M03 A3046 RMK A01 T00231026  RH  070%=      5-min Rain = 0
KFR1 080105Z 17003KT 02/M03 A3046 RMK A01 T00231026  RH  070%=      5-min Rain = 0
KFR1 080106Z 18003KT 02/M03 A3046 RMK A01 T00231026  RH  070%=      5-min Rain = 0
KFR1 080107Z 18003KT 02/M03 A3046 RMK A01 T00231026  RH  070%=      5-min Rain = 0
KFR1 080108Z 18003KT 02/M03 A3046 RMK A01 T00231026  RH  070%=      5-min Rain = 0
KFR1 080109Z 18003KT 02/M03 A3046 RMK A01 T00231026  RH  070%=      5-min Rain = 0
KFR1 080110Z 18002KT 02/M03 A3046 RMK A01 T00241027  RH  069%=      5-min Rain = 0
KFR1 080111Z 17003KT 02/M03 A3046 RMK A01 T00231027  RH  070%=      5-min Rain = 0
KFR1 080112Z 17003KT 02/M03 A3046 RMK A01 T00231026  RH  070%=      5-min Rain = 0
KFR1 080113Z 17003KT 02/M03 A3046 RMK A01 T00231026  RH  070%=      5-min Rain = 0
KFR1 080114Z 17003KT 02/M03 A3046 RMK A01 T00231027  RH  069%=      5-min Rain = 0
KFR1 080115Z 18003KT 02/M03 A3046 RMK A01 T00231027  RH  069%=      5-min Rain = 0
KFR1 080116Z 18003KT 02/M03 A3046 RMK A01 T00231027  RH  069%=      5-min Rain = 0
KFR1 080117Z 18003KT 02/M03 A3046 RMK A01 T00231027  RH  070%=      5-min Rain = 0
KFR1 080118Z 18003KT 02/M03 A3046 RMK A01 T00231026  RH  070%=      5-min Rain = 0
KFR1 080119Z 17002KT 02/M03 A3046 RMK A01 T00231026  RH  070%=      5-min Rain = 0
KFR1 080120Z 17002KT 02/M03 A3046 RMK A01 T00241026  RH  070%=      5-min Rain = 0
KFR1 080121Z 17002KT 02/M03 A3046 RMK A01 T00241025  RH  070%=      5-min Rain = 0
KFR1 080122Z 18002KT 02/M03 A3046 RMK A01 T00241026  RH  070%=      5-min Rain = 0
KFR1 080123Z 18002KT 02/M03 A3046 RMK A01 T00241026  RH  069%=      5-min Rain = 0
KFR1 080124Z 18002KT 02/M03 A3046 RMK A01 T00241027  RH  069%=      5-min Rain = 0
KFR1 080125Z 19002KT 02/M03 A3046 RMK A01 T00241026  RH  069%=      5-min Rain = 0
KFR1 080126Z 19002KT 02/M03 A3046 RMK A01 T00241026  RH  070%=      5-min Rain = 0
KFR1 080127Z 17002KT 02/M03 A3046 RMK A01 T00241026  RH  070%=      5-min Rain = 0
KFR1 080128Z 17002KT 02/M03 A3046 RMK A01 T00241025  RH  070%=      5-min Rain = 0
KFR1 080129Z 18002KT 02/M03 A3046 RMK A01 T00241025  RH  070%=      5-min Rain = 0
KFR1 080130Z 18002KT 02/M03 A3046 RMK A01 T00241025  RH  070%=      5-min Rain = 0
KFR1 080131Z 19003KT 02/M03 A3046 RMK A01 T00241025  RH  070%=      5-min Rain = 0
KFR1 080132Z 19003KT 02/M03 A3046 RMK A01 T00241026  RH  069%=      5-min Rain = 0
KFR1 080133Z 19002KT 02/M03 A3046 RMK A01 T00241027  RH  069%=      5-min Rain = 0
KFR1 080134Z 19002KT 02/M03 A3046 RMK A01 T00241026  RH  070%=      5-min Rain = 0
KFR1 080135Z 19002KT 02/M03 A3046 RMK A01 T00241026  RH  070%=      5-min Rain = 0
KFR1 080136Z 19003KT 02/M03 A3046 RMK A01 T00241026  RH  070%=      5-min Rain = 0
KFR1 080137Z 18002KT 02/M03 A3046 RMK A01 T00241026  RH  070%=      5-min Rain = 0
KFR1 080138Z 19002KT 02/M03 A3046 RMK A01 T00241026  RH  070%=      5-min Rain = 0
KFR1 080139Z 20002KT 02/M03 A3046 RMK A01 T00241026  RH  069%=      5-min Rain = 0
KFR1 080140Z 20002KT 02/M03 A3046 RMK A01 T00241025  RH  070%=      5-min Rain = 0
KFR1 080141Z 20003KT 02/M03 A3046 RMK A01 T00241025  RH  070%=      5-min Rain = 0
KFR1 080142Z 20003KT 02/M03 A3046 RMK A01 T00241026  RH  070%=      5-min Rain = 0
KFR1 080143Z 19003KT 02/M03 A3046 RMK A01 T00241026  RH  069%=      5-min Rain = 0
KFR1 080144Z 19002KT 03/M03 A3046 RMK A01 T00251026  RH  069%=      5-min Rain = 0
KFR1 080145Z 21002KT 02/M03 A3046 RMK A01 T00241025  RH  070%=      5-min Rain = 0
KFR1 080146Z 21003KT 03/M02 A3046 RMK A01 T00251024  RH  070%=      5-min Rain = 0
KFR1 080147Z 20002KT 03/M03 A3046 RMK A01 T00251025  RH  070%=      5-min Rain = 0
KFR1 080148Z 20003KT 03/M02 A3046 RMK A01 T00251024  RH  070%=      5-min Rain = 0
KFR1 080149Z 20003KT 03/M03 A3046 RMK A01 T00251025  RH  069%=      5-min Rain = 0
KFR1 080150Z 20003KT 03/M03 A3046 RMK A01 T00251025  RH  069%=      5-min Rain = 0
KFR1 080151Z 21003KT 03/M03 A3046 RMK A01 T00251025  RH  069%=      5-min Rain = 0
KFR1 080152Z 20003KT 03/M03 A3046 RMK A01 T00251025  RH  070%=      5-min Rain = 0
KFR1 080153Z 21002KT 03/M02 A3046 RMK A01 T00251024  RH  070%=      5-min Rain = 0
KFR1 080154Z 22003KT 03/M03 A3046 RMK A01 T00251025  RH  070%=      5-min Rain = 0
KFR1 080155Z 22003KT 03/M03 A3046 RMK A01 T00251025  RH  070%=      5-min Rain = 0
KFR1 080156Z 22003KT 03/M03 A3046 RMK A01 T00251025  RH  070%=      5-min Rain = 0
KFR1 080157Z 23004KT 03/M03 A3046 RMK A01 T00251025  RH  070%=      5-min Rain = 0
KFR1 080158Z 22003KT 03/M03 A3046 RMK A01 T00251025  RH  070%=      5-min Rain = 0
KFR1 080159Z 22003KT 03/M03 A3046 RMK A01 T00251025  RH  070%=      5-min Rain = 0
KFR1 080200Z 22003KT 03/M02 A3046 RMK A01 T00251024  RH  070%=      5-min Rain = 0
KFR1 080201Z 21004KT 03/M03 A3046 RMK A01 T00251025  RH  070%=      5-min Rain = 0
KFR1 080202Z 21004KT 03/M03 A3046 RMK A01 T00251025  RH  069%=      5-min Rain = 0
KFR1 080203Z 22003KT 03/M03 A3046 RMK A01 T00251025  RH  070%=      5-min Rain = 0
KFR1 080204Z 21003KT 03/M02 A3046 RMK A01 T00251024  RH  070%=      5-min Rain = 0
KFR1 080205Z 22004KT 03/M03 A3046 RMK A01 T00251025  RH  070%=      5-min Rain = 0
KFR1 080206Z 22004KT 03/M02 A3046 RMK A01 T00251024  RH  070%=      5-min Rain = 0
KFR1 080207Z 22004KT 03/M02 A3046 RMK A01 T00251024  RH  070%=      5-min Rain = 0
KFR1 080208Z 22004KT 03/M02 A3046 RMK A01 T00251024  RH  070%=      5-min Rain = 0
KFR1 080209Z 22004KT 03/M02 A3047 RMK A01 T00251024  RH  070%=      5-min Rain = 0
KFR1 080210Z 22004KT 03/M02 A3047 RMK A01 T00251024  RH  070%=      5-min Rain = 0
KFR1 080211Z 22004KT 03/M03 A3047 RMK A01 T00251025  RH  070%=      5-min Rain = 0
KFR1 080212Z 22004KT 03/M03 A3047 RMK A01 T00251025  RH  070%=      5-min Rain = 0
KFR1 080213Z 21005KT 03/M02 A3047 RMK A01 T00251024  RH  070%=      5-min Rain = 0
KFR1 080214Z 22005KT 03/M02 A3047 RMK A01 T00251024  RH  070%=      5-min Rain = 0
KFR1 080215Z 22005KT 03/M03 A3047 RMK A01 T00251025  RH  070%=      5-min Rain = 0
KFR1 080216Z 22004KT 03/M03 A3047 RMK A01 T00251025  RH  070%=      5-min Rain = 0
KFR1 080217Z 22004KT 02/M02 A3047 RMK A01 T00241024  RH  070%=      5-min Rain = 0
KFR1 080218Z 21004KT 02/M03 A3047 RMK A01 T00241025  RH  070%=      5-min Rain = 0
KFR1 080219Z 22004KT 02/M03 A3047 RMK A01 T00241025  RH  070%=      5-min Rain = 0
KFR1 080220Z 22004KT 03/M03 A3047 RMK A01 T00251025  RH  070%=      5-min Rain = 0
KFR1 080221Z 22004KT 03/M03 A3047 RMK A01 T00251025  RH  070%=      5-min Rain = 0
KFR1 080222Z 22003KT 03/M03 A3047 RMK A01 T00251025  RH  070%=      5-min Rain = 0
KFR1 080223Z 21003KT 03/M02 A3047 RMK A01 T00251024  RH  070%=      5-min Rain = 0
KFR1 080224Z 21004KT 03/M02 A3047 RMK A01 T00251024  RH  070%=      5-min Rain = 0
KFR1 080225Z 21004KT 03/M02 A3047 RMK A01 T00251024  RH  070%=      5-min Rain = 0
KFR1 080226Z 21004KT 03/M02 A3047 RMK A01 T00251024  RH  070%=      5-min Rain = 0
KFR1 080227Z 21005KT 03/M02 A3047 RMK A01 T00251024  RH  070%=      5-min Rain = 0
KFR1 080228Z 22004KT 03/M02 A3047 RMK A01 T00251024  RH  070%=      5-min Rain = 0
KFR1 080229Z 22004KT 03/M02 A3047 RMK A01 T00251024  RH  070%=      5-min Rain = 0
KFR1 080230Z 22003KT 03/M02 A3047 RMK A01 T00251024  RH  070%=      5-min Rain = 0
KFR1 080231Z 22003KT 03/M02 A3047 RMK A01 T00251024  RH  070%=      5-min Rain = 0
KFR1 080232Z 23003KT 03/M02 A3047 RMK A01 T00251024  RH  070%=      5-min Rain = 0
KFR1 080233Z 22003KT 03/M02 A3047 RMK A01 T00251022  RH  071%=      5-min Rain = 0
KFR1 080234Z 22003KT 03/M02 A3047 RMK A01 T00261022  RH  071%=      5-min Rain = 0
KFR1 080235Z 22003KT 03/M02 A3047 RMK A01 T00261023  RH  070%=      5-min Rain = 0
KFR1 080236Z 22004KT 03/M02 A3047 RMK A01 T00261024  RH  070%=      5-min Rain = 0
KFR1 080237Z 22004KT 03/M02 A3047 RMK A01 T00251024  RH  070%=      5-min Rain = 0
KFR1 080238Z 21004KT 03/M02 A3047 RMK A01 T00251024  RH  070%=      5-min Rain = 0
KFR1 080239Z 22003KT 03/M03 A3047 RMK A01 T00251025  RH  069%=      5-min Rain = 0
KFR1 080240Z 23003KT 03/M03 A3047 RMK A01 T00251025  RH  069%=      5-min Rain = 0
KFR1 080241Z 22004KT 03/M02 A3047 RMK A01 T00251024  RH  070%=      5-min Rain = 0
KFR1 080242Z 22004KT 03/M02 A3047 RMK A01 T00251024  RH  070%=      5-min Rain = 0
KFR1 080243Z 22004KT 03/M02 A3047 RMK A01 T00251024  RH  070%=      5-min Rain = 0
KFR1 080244Z 21004KT 03/M03 A3047 RMK A01 T00251025  RH  070%=      5-min Rain = 0
KFR1 080245Z 22003KT 03/M03 A3047 RMK A01 T00251025  RH  070%=      5-min Rain = 0
KFR1 080246Z 22003KT 03/M03 A3047 RMK A01 T00251025  RH  070%=      5-min Rain = 0
KFR1 080247Z 21004KT 03/M02 A3047 RMK A01 T00251024  RH  070%=      5-min Rain = 0
KFR1 080248Z 21004KT 03/M03 A3047 RMK A01 T00251025  RH  069%=      5-min Rain = 0
KFR1 080249Z 21004KT 03/M03 A3047 RMK A01 T00251025  RH  069%=      5-min Rain = 0
KFR1 080250Z 22003KT 03/M03 A3047 RMK A01 T00251025  RH  070%=      5-min Rain = 0
KFR1 080251Z 21004KT 03/M02 A3047 RMK A01 T00261024  RH  070%=      5-min Rain = 0
KFR1 080252Z 22004KT 03/M02 A3047 RMK A01 T00251024  RH  070%=      5-min Rain = 0
KFR1 080253Z 22003KT 03/M02 A3047 RMK A01 T00261024  RH  070%=      5-min Rain = 0
KFR1 080254Z 21003KT 03/M02 A3047 RMK A01 T00251024  RH  070%=      5-min Rain = 0
KFR1 080255Z 22003KT 03/M02 A3047 RMK A01 T00261024  RH  070%=      5-min Rain = 0
KFR1 080256Z 21004KT 03/M02 A3047 RMK A01 T00251024  RH  070%=      5-min Rain = 0
KFR1 080257Z 21003KT 03/M03 A3047 RMK A01 T00261025  RH  069%=      5-min Rain = 0
KFR1 080258Z 21003KT 03/M03 A3047 RMK A01 T00251025  RH  069%=      5-min Rain = 0
KFR1 080259Z 22004KT 03/M03 A3047 RMK A01 T00261025  RH  069%=      5-min Rain = 0
KFR1 080300Z 22003KT 03/M03 A3047 RMK A01 T00261025  RH  069%=      5-min Rain = 0
KFR1 080301Z 22003KT 03/M02 A3047 RMK A01 T00261024  RH  070%=      5-min Rain = 0
KFR1 080302Z 22003KT 03/M02 A3047 RMK A01 T00261024  RH  070%=      5-min Rain = 0
KFR1 080303Z 22004KT 03/M02 A3047 RMK A01 T00261024  RH  070%=      5-min Rain = 0
KFR1 080304Z 23004KT 03/M03 A3047 RMK A01 T00261025  RH  069%=      5-min Rain = 0
KFR1 080305Z 23004KT 03/M03 A3047 RMK A01 T00261025  RH  069%=      5-min Rain = 0
KFR1 080306Z 22004KT 03/M03 A3047 RMK A01 T00251025  RH  070%=      5-min Rain = 0
KFR1 080307Z 22004KT 03/M03 A3047 RMK A01 T00251025  RH  070%=      5-min Rain = 0
KFR1 080308Z 22004KT 03/M03 A3047 RMK A01 T00251025  RH  069%=      5-min Rain = 0
KFR1 080309Z 22004KT 03/M03 A3047 RMK A01 T00251025  RH  069%=      5-min Rain = 0
KFR1 080310Z 22004KT 03/M03 A3047 RMK A01 T00251025  RH  070%=      5-min Rain = 0
KFR1 080311Z 23004KT 03/M02 A3047 RMK A01 T00261024  RH  070%=      5-min Rain = 0
KFR1 080312Z 23004KT 03/M02 A3047 RMK A01 T00251024  RH  070%=      5-min Rain = 0
KFR1 080313Z 23003KT 03/M03 A3047 RMK A01 T00251025  RH  070%=      5-min Rain = 0
KFR1 080314Z 22003KT 03/M03 A3047 RMK A01 T00251025  RH  070%=      5-min Rain = 0
KFR1 080315Z 22003KT 03/M02 A3047 RMK A01 T00251024  RH  070%=      5-min Rain = 0
KFR1 080316Z 21003KT 03/M02 A3047 RMK A01 T00251023  RH  070%=      5-min Rain = 0
KFR1 080317Z 21004KT 03/M02 A3047 RMK A01 T00261024  RH  070%=      5-min Rain = 0
KFR1 080318Z 22003KT 03/M03 A3047 RMK A01 T00251025  RH  070%=      5-min Rain = 0
KFR1 080319Z 21004KT 03/M02 A3047 RMK A01 T00251024  RH  070%=      5-min Rain = 0
KFR1 080320Z 22004KT 03/M02 A3047 RMK A01 T00251023  RH  070%=      5-min Rain = 0
KFR1 080321Z 23005KT 03/M02 A3047 RMK A01 T00261023  RH  070%=      5-min Rain = 0
KFR1 080322Z 22005KT 03/M02 A3047 RMK A01 T00261023  RH  070%=      5-min Rain = 0
KFR1 080323Z 22004KT 03/M02 A3047 RMK A01 T00261023  RH  070%=      5-min Rain = 0
KFR1 080324Z 23004KT 03/M02 A3047 RMK A01 T00261023  RH  070%=      5-min Rain = 0
KFR1 080325Z 22004KT 03/M02 A3047 RMK A01 T00261023  RH  070%=      5-min Rain = 0
KFR1 080326Z 22004KT 03/M02 A3047 RMK A01 T00261023  RH  070%=      5-min Rain = 0
KFR1 080327Z 21004KT 03/M02 A3047 RMK A01 T00261023  RH  070%=      5-min Rain = 0
KFR1 080328Z 22004KT 03/M02 A3047 RMK A01 T00251024  RH  070%=      5-min Rain = 0
KFR1 080329Z 22004KT 03/M02 A3047 RMK A01 T00251024  RH  070%=      5-min Rain = 0
KFR1 080330Z 21004KT 03/M02 A3047 RMK A01 T00251023  RH  070%=      5-min Rain = 0
KFR1 080331Z 22004KT 03/M02 A3047 RMK A01 T00251024  RH  070%=      5-min Rain = 0
KFR1 080332Z 22004KT 03/M02 A3047 RMK A01 T00251024  RH  070%=      5-min Rain = 0
KFR1 080333Z 22005KT 03/M02 A3047 RMK A01 T00261024  RH  070%=      5-min Rain = 0
KFR1 080334Z 21005KT 03/M02 A3047 RMK A01 T00261024  RH  069%=      5-min Rain = 0
KFR1 080335Z 22005KT 03/M02 A3047 RMK A01 T00261024  RH  069%=      5-min Rain = 0
KFR1 080336Z 22005KT 03/M02 A3047 RMK A01 T00261024  RH  070%=      5-min Rain = 0
KFR1 080337Z 22004KT 03/M02 A3047 RMK A01 T00261023  RH  070%=      5-min Rain = 0
KFR1 080338Z 22005KT 03/M02 A3047 RMK A01 T00261024  RH  070%=      5-min Rain = 0
KFR1 080339Z 22004KT 03/M02 A3047 RMK A01 T00261023  RH  070%=      5-min Rain = 0
KFR1 080340Z 22005KT 03/M02 A3047 RMK A01 T00261024  RH  070%=      5-min Rain = 0
KFR1 080341Z 22005KT 03/M03 A3047 RMK A01 T00261025  RH  069%=      5-min Rain = 0
KFR1 080342Z 22005KT 03/M03 A3047 RMK A01 T00261025  RH  069%=      5-min Rain = 0
KFR1 080343Z 22005KT 03/M03 A3047 RMK A01 T00261025  RH  069%=      5-min Rain = 0
KFR1 080344Z 21004KT 03/M03 A3047 RMK A01 T00261025  RH  069%=      5-min Rain = 0
KFR1 080345Z 22005KT 03/M03 A3047 RMK A01 T00261025  RH  069%=      5-min Rain = 0
KFR1 080346Z 22005KT 03/M03 A3047 RMK A01 T00261025  RH  069%=      5-min Rain = 0
KFR1 080347Z 21005KT 03/M03 A3047 RMK A01 T00261025  RH  069%=      5-min Rain = 0
KFR1 080348Z 22006KT 03/M03 A3047 RMK A01 T00261025  RH  069%=      5-min Rain = 0
KFR1 080349Z 22005KT 03/M03 A3047 RMK A01 T00261025  RH  069%=      5-min Rain = 0
KFR1 080350Z 22005KT 03/M03 A3047 RMK A01 T00261026  RH  068%=      5-min Rain = 0
KFR1 080351Z 22005KT 03/M03 A3047 RMK A01 T00261026  RH  068%=      5-min Rain = 0
KFR1 080352Z 22005KT 03/M03 A3047 RMK A01 T00261026  RH  069%=      5-min Rain = 0
KFR1 080353Z 21004KT 03/M03 A3047 RMK A01 T00261025  RH  069%=      5-min Rain = 0
KFR1 080354Z 21004KT 03/M02 A3047 RMK A01 T00261024  RH  069%=      5-min Rain = 0
KFR1 080355Z 21004KT 03/M02 A3047 RMK A01 T00271024  RH  069%=      5-min Rain = 0
KFR1 080356Z 21004KT 03/M02 A3047 RMK A01 T00261024  RH  069%=      5-min Rain = 0
KFR1 080357Z 21004KT 03/M02 A3047 RMK A01 T00261024  RH  069%=      5-min Rain = 0
KFR1 080358Z 21004KT 03/M02 A3047 RMK A01 T00261024  RH  069%=      5-min Rain = 0
KFR1 080359Z 22004KT 03/M02 A3047 RMK A01 T00271023  RH  070%=      5-min Rain = 0
KFR1 080400Z 22004KT 03/M02 A3047 RMK A01 T00261024  RH  070%=      5-min Rain = 0
KFR1 080401Z 21003KT 03/M02 A3047 RMK A01 T00261024  RH  070%=      5-min Rain = 0
KFR1 080402Z 20003KT 03/M02 A3047 RMK A01 T00271023  RH  070%=      5-min Rain = 0
KFR1 080403Z 21004KT 03/M02 A3047 RMK A01 T00271023  RH  070%=      5-min Rain = 0
KFR1 080404Z 21004KT 03/M02 A3047 RMK A01 T00271024  RH  069%=      5-min Rain = 0
KFR1 080405Z 21005KT 03/M02 A3047 RMK A01 T00271024  RH  069%=      5-min Rain = 0
KFR1 080406Z 21004KT 03/M03 A3047 RMK A01 T00271025  RH  069%=      5-min Rain = 0
KFR1 080407Z 21005KT 03/M03 A3047 RMK A01 T00271025  RH  069%=      5-min Rain = 0
KFR1 080408Z 21004KT 03/M02 A3047 RMK A01 T00271024  RH  069%=      5-min Rain = 0
KFR1 080409Z 20003KT 03/M02 A3047 RMK A01 T00271024  RH  069%=      5-min Rain = 0
KFR1 080410Z 20004KT 03/M03 A3047 RMK A01 T00271025  RH  069%=      5-min Rain = 0
KFR1 080411Z 21004KT 03/M03 A3047 RMK A01 T00271025  RH  069%=      5-min Rain = 0
KFR1 080412Z 21004KT 03/M03 A3047 RMK A01 T00271025  RH  069%=      5-min Rain = 0
KFR1 080413Z 21004KT 03/M03 A3047 RMK A01 T00271026  RH  068%=      5-min Rain = 0
KFR1 080414Z 21004KT 03/M03 A3047 RMK A01 T00271026  RH  068%=      5-min Rain = 0
KFR1 080415Z 22003KT 03/M03 A3047 RMK A01 T00271026  RH  068%=      5-min Rain = 0
KFR1 080416Z 21003KT 03/M03 A3047 RMK A01 T00271025  RH  069%=      5-min Rain = 0
KFR1 080417Z 21003KT 03/M02 A3047 RMK A01 T00271024  RH  069%=      5-min Rain = 0
KFR1 080418Z 22003KT 03/M02 A3047 RMK A01 T00271024  RH  069%=      5-min Rain = 0
KFR1 080419Z 21004KT 03/M02 A3047 RMK A01 T00271024  RH  069%=      5-min Rain = 0
KFR1 080420Z 21004KT 03/M02 A3047 RMK A01 T00271024  RH  069%=      5-min Rain = 0
KFR1 080421Z 21004KT 03/M02 A3047 RMK A01 T00271024  RH  069%=      5-min Rain = 0
KFR1 080422Z 21004KT 03/M03 A3047 RMK A01 T00271025  RH  069%=      5-min Rain = 0
KFR1 080423Z 21004KT 03/M03 A3047 RMK A01 T00271025  RH  069%=      5-min Rain = 0
KFR1 080424Z 21004KT 03/M03 A3047 RMK A01 T00271025  RH  069%=      5-min Rain = 0
KFR1 080425Z 21004KT 03/M03 A3047 RMK A01 T00271025  RH  068%=      5-min Rain = 0
KFR1 080426Z 21005KT 03/M03 A3047 RMK A01 T00271025  RH  068%=      5-min Rain = 0
KFR1 080427Z 21005KT 03/M03 A3047 RMK A01 T00271025  RH  069%=      5-min Rain = 0
KFR1 080428Z 21005KT 03/M03 A3047 RMK A01 T00271025  RH  068%=      5-min Rain = 0
KFR1 080429Z 21005KT 03/M03 A3047 RMK A01 T00271025  RH  068%=      5-min Rain = 0
KFR1 080430Z 20004KT 03/M03 A3047 RMK A01 T00271025  RH  068%=      5-min Rain = 0
KFR1 080431Z 20005KT 03/M03 A3047 RMK A01 T00271025  RH  068%=      5-min Rain = 0
KFR1 080432Z 21005KT 03/M02 A3047 RMK A01 T00281024  RH  069%=      5-min Rain = 0
KFR1 080433Z 21004KT 03/M02 A3047 RMK A01 T00281024  RH  068%=      5-min Rain = 0
KFR1 080434Z 21004KT 03/M02 A3047 RMK A01 T00281024  RH  068%=      5-min Rain = 0
KFR1 080435Z 20004KT 03/M03 A3047 RMK A01 T00281025  RH  068%=      5-min Rain = 0
KFR1 080436Z 22005KT 03/M02 A3047 RMK A01 T00281024  RH  069%=      5-min Rain = 0
KFR1 080437Z 21004KT 03/M02 A3047 RMK A01 T00281024  RH  068%=      5-min Rain = 0
KFR1 080438Z 21004KT 03/M02 A3047 RMK A01 T00281024  RH  068%=      5-min Rain = 0
KFR1 080439Z 21004KT 03/M02 A3047 RMK A01 T00281024  RH  069%=      5-min Rain = 0
KFR1 080440Z 21005KT 03/M02 A3047 RMK A01 T00281024  RH  069%=      5-min Rain = 0
KFR1 080441Z 21005KT 03/M02 A3047 RMK A01 T00281024  RH  069%=      5-min Rain = 0
KFR1 080442Z 21006KT 03/M02 A3047 RMK A01 T00281024  RH  068%=      5-min Rain = 0
KFR1 080443Z 21006KT 03/M03 A3047 RMK A01 T00281025  RH  068%=      5-min Rain = 0
KFR1 080444Z 21005KT 03/M02 A3047 RMK A01 T00281024  RH  068%=      5-min Rain = 0
KFR1 080445Z 21005KT 03/M02 A3047 RMK A01 T00281024  RH  068%=      5-min Rain = 0
KFR1 080446Z 22005KT 03/M02 A3047 RMK A01 T00281024  RH  069%=      5-min Rain = 0
KFR1 080447Z 22005KT 03/M02 A3047 RMK A01 T00281024  RH  069%=      5-min Rain = 0
KFR1 080448Z 22005KT 03/M02 A3047 RMK A01 T00281024  RH  069%=      5-min Rain = 0
KFR1 080449Z 22006KT 03/M02 A3047 RMK A01 T00281024  RH  068%=      5-min Rain = 0
KFR1 080450Z 21006KT 03/M03 A3047 RMK A01 T00281025  RH  068%=      5-min Rain = 0
KFR1 080451Z 22005KT 03/M03 A3047 RMK A01 T00281025  RH  069%=      5-min Rain = 0
KFR1 080452Z 22005KT 03/M02 A3047 RMK A01 T00281024  RH  069%=      5-min Rain = 0
KFR1 080453Z 22005KT 03/M02 A3047 RMK A01 T00281024  RH  069%=      5-min Rain = 0
KFR1 080454Z 22005KT 03/M02 A3047 RMK A01 T00281023  RH  069%=      5-min Rain = 0
KFR1 080455Z 23006KT 03/M02 A3047 RMK A01 T00281023  RH  069%=      5-min Rain = 0
KFR1 080456Z 22005KT 03/M02 A3047 RMK A01 T00281023  RH  069%=      5-min Rain = 0
KFR1 080457Z 23005KT 03/M02 A3047 RMK A01 T00281023  RH  069%=      5-min Rain = 0
KFR1 080458Z 22004KT 03/M02 A3047 RMK A01 T00281023  RH  069%=      5-min Rain = 0
KFR1 080459Z 21005KT 03/M02 A3046 RMK A01 T00281023  RH  069%=      5-min Rain = 0
KFR1 080500Z 22005KT 03/M02 A3046 RMK A01 T00281024  RH  069%=      5-min Rain = 0
KFR1 080501Z 22006KT 03/M02 A3046 RMK A01 T00281024  RH  069%=      5-min Rain = 0
KFR1 080502Z 22006KT 03/M02 A3046 RMK A01 T00281024  RH  069%=      5-min Rain = 0
KFR1 080503Z 22005KT 03/M02 A3046 RMK A01 T00281024  RH  069%=      5-min Rain = 0
KFR1 080504Z 22005KT 03/M02 A3046 RMK A01 T00281024  RH  069%=      5-min Rain = 0
KFR1 080505Z 21007KT 03/M02 A3046 RMK A01 T00281024  RH  069%=      5-min Rain = 0
KFR1 080506Z 22006KT 03/M03 A3046 RMK A01 T00281025  RH  068%=      5-min Rain = 0
KFR1 080507Z 22005KT 03/M03 A3046 RMK A01 T00281025  RH  068%=      5-min Rain = 0
KFR1 080508Z 22005KT 03/M02 A3046 RMK A01 T00281024  RH  069%=      5-min Rain = 0
KFR1 080509Z 22006KT 03/M02 A3046 RMK A01 T00281024  RH  069%=      5-min Rain = 0
KFR1 080510Z 22006KT 03/M02 A3046 RMK A01 T00281024  RH  069%=      5-min Rain = 0
KFR1 080511Z 22006KT 03/M02 A3046 RMK A01 T00281024  RH  069%=      5-min Rain = 0
KFR1 080512Z 22006KT 03/M02 A3046 RMK A01 T00281024  RH  069%=      5-min Rain = 0
KFR1 080513Z 22005KT 03/M02 A3046 RMK A01 T00281024  RH  069%=      5-min Rain = 0
KFR1 080514Z 22005KT 03/M02 A3046 RMK A01 T00281024  RH  069%=      5-min Rain = 0
KFR1 080515Z 22005KT 03/M03 A3046 RMK A01 T00281025  RH  068%=      5-min Rain = 0
KFR1 080516Z 22006KT 03/M03 A3046 RMK A01 T00281025  RH  068%=      5-min Rain = 0
KFR1 080517Z 22004KT 03/M02 A3046 RMK A01 T00281024  RH  069%=      5-min Rain = 0
KFR1 080518Z 21004KT 03/M02 A3046 RMK A01 T00281023  RH  069%=      5-min Rain = 0
KFR1 080519Z 21005KT 03/M02 A3046 RMK A01 T00281024  RH  069%=      5-min Rain = 0
KFR1 080520Z 22005KT 03/M02 A3046 RMK A01 T00281024  RH  069%=      5-min Rain = 0
KFR1 080521Z 21005KT 03/M02 A3046 RMK A01 T00281024  RH  068%=      5-min Rain = 0
KFR1 080522Z 22006KT 03/M03 A3046 RMK A01 T00281025  RH  068%=      5-min Rain = 0
KFR1 080523Z 22006KT 03/M03 A3046 RMK A01 T00281025  RH  068%=      5-min Rain = 0
KFR1 080524Z 22004KT 03/M03 A3046 RMK A01 T00281025  RH  068%=      5-min Rain = 0
KFR1 080525Z 22004KT 03/M02 A3046 RMK A01 T00281024  RH  069%=      5-min Rain = 0
KFR1 080526Z 22005KT 03/M02 A3046 RMK A01 T00281024  RH  069%=      5-min Rain = 0
KFR1 080527Z 22005KT 03/M03 A3046 RMK A01 T00281025  RH  068%=      5-min Rain = 0
KFR1 080528Z 22005KT 03/M02 A3046 RMK A01 T00281024  RH  068%=      5-min Rain = 0
KFR1 080529Z 22006KT 03/M02 A3046 RMK A01 T00281024  RH  069%=      5-min Rain = 0
KFR1 080530Z 22005KT 03/M02 A3046 RMK A01 T00281024  RH  068%=      5-min Rain = 0
KFR1 080531Z 22005KT 03/M02 A3046 RMK A01 T00281024  RH  069%=      5-min Rain = 0
KFR1 080532Z 22005KT 03/M02 A3046 RMK A01 T00281023  RH  069%=      5-min Rain = 0
KFR1 080533Z 22006KT 03/M02 A3046 RMK A01 T00281023  RH  069%=      5-min Rain = 0
KFR1 080534Z 22006KT 03/M02 A3046 RMK A01 T00291024  RH  068%=      5-min Rain = 0
KFR1 080535Z 21006KT 03/M02 A3046 RMK A01 T00281024  RH  068%=      5-min Rain = 0
KFR1 080536Z 21006KT 03/M02 A3046 RMK A01 T00291024  RH  068%=      5-min Rain = 0
KFR1 080537Z 22005KT 03/M03 A3046 RMK A01 T00291025  RH  068%=      5-min Rain = 0
KFR1 080538Z 22005KT 03/M02 A3046 RMK A01 T00291024  RH  068%=      5-min Rain = 0
KFR1 080539Z 22005KT 03/M02 A3045 RMK A01 T00291024  RH  068%=      5-min Rain = 0
KFR1 080540Z 21004KT 03/M02 A3045 RMK A01 T00291024  RH  068%=      5-min Rain = 0
KFR1 080541Z 22005KT 03/M02 A3045 RMK A01 T00291024  RH  068%=      5-min Rain = 0
KFR1 080542Z 22006KT 03/M02 A3045 RMK A01 T00291024  RH  068%=      5-min Rain = 0
KFR1 080543Z 22007KT 03/M03 A3045 RMK A01 T00291026  RH  067%=      5-min Rain = 0
KFR1 080544Z 22006KT 03/M03 A3045 RMK A01 T00281026  RH  067%=      5-min Rain = 0
KFR1 080545Z 21005KT 03/M03 A3045 RMK A01 T00291026  RH  067%=      5-min Rain = 0
KFR1 080546Z 22006KT 03/M03 A3045 RMK A01 T00291025  RH  068%=      5-min Rain = 0
KFR1 080547Z 22006KT 03/M03 A3045 RMK A01 T00291025  RH  068%=      5-min Rain = 0
KFR1 080548Z 21006KT 03/M03 A3045 RMK A01 T00291026  RH  067%=      5-min Rain = 0
KFR1 080549Z 22006KT 03/M03 A3045 RMK A01 T00281026  RH  067%=      5-min Rain = 0
KFR1 080550Z 22006KT 03/M03 A3045 RMK A01 T00291025  RH  068%=      5-min Rain = 0
KFR1 080551Z 23006KT 03/M03 A3045 RMK A01 T00291025  RH  068%=      5-min Rain = 0
KFR1 080552Z 22005KT 03/M02 A3045 RMK A01 T00291024  RH  068%=      5-min Rain = 0
KFR1 080553Z 22005KT 03/M02 A3045 RMK A01 T00291024  RH  068%=      5-min Rain = 0
KFR1 080554Z 22005KT 03/M03 A3045 RMK A01 T00291025  RH  068%=      5-min Rain = 0
KFR1 080555Z 22005KT 03/M03 A3045 RMK A01 T00291025  RH  068%=      5-min Rain = 0
KFR1 080556Z 21006KT 03/M03 A3045 RMK A01 T00291026  RH  067%=      5-min Rain = 0
KFR1 080557Z 22005KT 03/M03 A3045 RMK A01 T00291025  RH  068%=      5-min Rain = 0
KFR1 080558Z 22005KT 03/M03 A3045 RMK A01 T00291025  RH  068%=      5-min Rain = 0
KFR1 080559Z 21006KT 03/M03 A3045 RMK A01 T00291025  RH  067%=      5-min Rain = 0

Page generated in 0.0719 seconds.